<?xml version="1.0" encoding="utf-8"?>
<gpx xmlns:xsi="http://www.w3.org/2001/XMLSchema-instance" xmlns:xsd="http://www.w3.org/2001/XMLSchema" version="1.1" creator="Shapelink.com" xmlns="http://www.topografix.com/GPX/1/1" xmlns:gpxtpx="http://www.garmin.com/xmlschemas/TrackPointExtension/v1">
  <metadata>
    <name>Esquí nórdico 20.00 km, 2020-01-02</name>
    <desc></desc>
    <author><name>Per Rooth</name></author> 
    <time>2020-01-02T16:41:45Z</time>
  </metadata>
  <trk>
    <name>Esquí nórdico 20.00 km, 2020-01-02</name>
    <trkseg>
      <trkpt lat="61.303356069657" lon="12.242429131756">
        <ele>441.4</ele>
        <time>2020-01-02T16:41:45Z</time>
      </trkpt>
      <trkpt lat="61.303356740209" lon="12.242973284704">
        <ele>441.8</ele>
        <time>2020-01-02T16:41:51Z</time>
      </trkpt>
      <trkpt lat="61.303330840138" lon="12.243244774445">
        <ele>441.8</ele>
        <time>2020-01-02T16:41:53Z</time>
      </trkpt>
      <trkpt lat="61.303246350586" lon="12.243442754923">
        <ele>442</ele>
        <time>2020-01-02T16:41:55Z</time>
      </trkpt>
      <trkpt lat="61.303129339262" lon="12.243465469872">
        <ele>440.6</ele>
        <time>2020-01-02T16:41:57Z</time>
      </trkpt>
      <trkpt lat="61.303077203844" lon="12.243447281149">
        <ele>439.4</ele>
        <time>2020-01-02T16:41:58Z</time>
      </trkpt>
      <trkpt lat="61.303030097566" lon="12.243434540661">
        <ele>438.2</ele>
        <time>2020-01-02T16:41:59Z</time>
      </trkpt>
      <trkpt lat="61.302607901263" lon="12.243549624148">
        <ele>439.4</ele>
        <time>2020-01-02T16:42:10Z</time>
      </trkpt>
      <trkpt lat="61.302514862173" lon="12.243604022679">
        <ele>440.6</ele>
        <time>2020-01-02T16:42:13Z</time>
      </trkpt>
      <trkpt lat="61.302332304391" lon="12.243707203868">
        <ele>439.2</ele>
        <time>2020-01-02T16:42:18Z</time>
      </trkpt>
      <trkpt lat="61.302243875346" lon="12.243756573259">
        <ele>439</ele>
        <time>2020-01-02T16:42:20Z</time>
      </trkpt>
      <trkpt lat="61.302167851513" lon="12.243803595718">
        <ele>439.2</ele>
        <time>2020-01-02T16:42:22Z</time>
      </trkpt>
      <trkpt lat="61.301855374281" lon="12.243777360371">
        <ele>440.4</ele>
        <time>2020-01-02T16:42:33Z</time>
      </trkpt>
      <trkpt lat="61.301682623322" lon="12.243770654851">
        <ele>441.4</ele>
        <time>2020-01-02T16:42:38Z</time>
      </trkpt>
      <trkpt lat="61.301290350402" lon="12.244044575343">
        <ele>441.4</ele>
        <time>2020-01-02T16:42:49Z</time>
      </trkpt>
      <trkpt lat="61.301209548886" lon="12.244105679394">
        <ele>441.6</ele>
        <time>2020-01-02T16:42:51Z</time>
      </trkpt>
      <trkpt lat="61.300960354999" lon="12.244164604151">
        <ele>440.4</ele>
        <time>2020-01-02T16:42:58Z</time>
      </trkpt>
      <trkpt lat="61.300648213043" lon="12.244176254992">
        <ele>441.6</ele>
        <time>2020-01-02T16:43:10Z</time>
      </trkpt>
      <trkpt lat="61.300498177033" lon="12.244326877735">
        <ele>442.8</ele>
        <time>2020-01-02T16:43:16Z</time>
      </trkpt>
      <trkpt lat="61.300284103307" lon="12.244584202065">
        <ele>441.8</ele>
        <time>2020-01-02T16:43:24Z</time>
      </trkpt>
      <trkpt lat="61.30025200063" lon="12.244584704979">
        <ele>441.2</ele>
        <time>2020-01-02T16:43:27Z</time>
      </trkpt>
      <trkpt lat="61.300254850476" lon="12.244571126301">
        <ele>440.8</ele>
        <time>2020-01-02T16:43:33Z</time>
      </trkpt>
      <trkpt lat="61.300130379261" lon="12.244792743737">
        <ele>440.8</ele>
        <time>2020-01-02T16:43:50Z</time>
      </trkpt>
      <trkpt lat="61.299876240053" lon="12.245154757998">
        <ele>442</ele>
        <time>2020-01-02T16:43:59Z</time>
      </trkpt>
      <trkpt lat="61.299664345621" lon="12.24542951668">
        <ele>443.2</ele>
        <time>2020-01-02T16:44:08Z</time>
      </trkpt>
      <trkpt lat="61.299362764859" lon="12.245502523029">
        <ele>444.4</ele>
        <time>2020-01-02T16:44:17Z</time>
      </trkpt>
      <trkpt lat="61.298931180828" lon="12.245627580977">
        <ele>443.4</ele>
        <time>2020-01-02T16:44:29Z</time>
      </trkpt>
      <trkpt lat="61.298478642047" lon="12.245770743829">
        <ele>443.6</ele>
        <time>2020-01-02T16:44:41Z</time>
      </trkpt>
      <trkpt lat="61.298030545673" lon="12.245956822009">
        <ele>443.2</ele>
        <time>2020-01-02T16:44:53Z</time>
      </trkpt>
      <trkpt lat="61.297867936813" lon="12.246011304359">
        <ele>442.8</ele>
        <time>2020-01-02T16:44:57Z</time>
      </trkpt>
      <trkpt lat="61.297580940557" lon="12.246146504406">
        <ele>443.6</ele>
        <time>2020-01-02T16:45:04Z</time>
      </trkpt>
      <trkpt lat="61.297123288817" lon="12.246293103837">
        <ele>444</ele>
        <time>2020-01-02T16:45:18Z</time>
      </trkpt>
      <trkpt lat="61.296928828737" lon="12.246358063562">
        <ele>444.4</ele>
        <time>2020-01-02T16:45:25Z</time>
      </trkpt>
      <trkpt lat="61.296631187468" lon="12.246431321368">
        <ele>445.6</ele>
        <time>2020-01-02T16:45:35Z</time>
      </trkpt>
      <trkpt lat="61.296462962735" lon="12.246476332171">
        <ele>446.6</ele>
        <time>2020-01-02T16:45:40Z</time>
      </trkpt>
      <trkpt lat="61.295993324878" lon="12.24664824494">
        <ele>446.2</ele>
        <time>2020-01-02T16:45:54Z</time>
      </trkpt>
      <trkpt lat="61.295790063803" lon="12.246715467778">
        <ele>447.6</ele>
        <time>2020-01-02T16:46:01Z</time>
      </trkpt>
      <trkpt lat="61.295512790551" lon="12.24680414828">
        <ele>448.6</ele>
        <time>2020-01-02T16:46:11Z</time>
      </trkpt>
      <trkpt lat="61.295125295314" lon="12.246919064129">
        <ele>450</ele>
        <time>2020-01-02T16:46:23Z</time>
      </trkpt>
      <trkpt lat="61.294921279868" lon="12.246982096017">
        <ele>449</ele>
        <time>2020-01-02T16:46:28Z</time>
      </trkpt>
      <trkpt lat="61.294444936491" lon="12.247087372681">
        <ele>448.4</ele>
        <time>2020-01-02T16:46:40Z</time>
      </trkpt>
      <trkpt lat="61.293989547864" lon="12.247276803621">
        <ele>449.6</ele>
        <time>2020-01-02T16:46:54Z</time>
      </trkpt>
      <trkpt lat="61.293936993351" lon="12.247290801394">
        <ele>450</ele>
        <time>2020-01-02T16:46:56Z</time>
      </trkpt>
      <trkpt lat="61.293755860492" lon="12.247372105824">
        <ele>451.2</ele>
        <time>2020-01-02T16:47:03Z</time>
      </trkpt>
      <trkpt lat="61.293528543364" lon="12.247467827122">
        <ele>452.4</ele>
        <time>2020-01-02T16:47:12Z</time>
      </trkpt>
      <trkpt lat="61.29321623377" lon="12.247567571732">
        <ele>453.4</ele>
        <time>2020-01-02T16:47:24Z</time>
      </trkpt>
      <trkpt lat="61.293006518632" lon="12.247659269718">
        <ele>454.6</ele>
        <time>2020-01-02T16:47:32Z</time>
      </trkpt>
      <trkpt lat="61.292705021689" lon="12.247726576375">
        <ele>455.6</ele>
        <time>2020-01-02T16:47:43Z</time>
      </trkpt>
      <trkpt lat="61.292390784258" lon="12.247773179739">
        <ele>456</ele>
        <time>2020-01-02T16:47:51Z</time>
      </trkpt>
      <trkpt lat="61.292270420174" lon="12.247765636029">
        <ele>455.4</ele>
        <time>2020-01-02T16:47:54Z</time>
      </trkpt>
      <trkpt lat="61.29180136905" lon="12.247743256356">
        <ele>456.2</ele>
        <time>2020-01-02T16:48:08Z</time>
      </trkpt>
      <trkpt lat="61.291687626667" lon="12.247748536953">
        <ele>456.6</ele>
        <time>2020-01-02T16:48:12Z</time>
      </trkpt>
      <trkpt lat="61.291571621171" lon="12.247770413712">
        <ele>457.8</ele>
        <time>2020-01-02T16:48:16Z</time>
      </trkpt>
      <trkpt lat="61.291299796154" lon="12.247927825794">
        <ele>458.8</ele>
        <time>2020-01-02T16:48:25Z</time>
      </trkpt>
      <trkpt lat="61.29109561307" lon="12.248107198454">
        <ele>457.6</ele>
        <time>2020-01-02T16:48:31Z</time>
      </trkpt>
      <trkpt lat="61.290669225817" lon="12.248437193857">
        <ele>457.6</ele>
        <time>2020-01-02T16:48:43Z</time>
      </trkpt>
      <trkpt lat="61.290232696465" lon="12.24878730582">
        <ele>457.6</ele>
        <time>2020-01-02T16:48:55Z</time>
      </trkpt>
      <trkpt lat="61.289780157684" lon="12.249112188264">
        <ele>458.2</ele>
        <time>2020-01-02T16:49:08Z</time>
      </trkpt>
      <trkpt lat="61.289337761002" lon="12.249454756517">
        <ele>458.2</ele>
        <time>2020-01-02T16:49:20Z</time>
      </trkpt>
      <trkpt lat="61.289192335037" lon="12.249575707334">
        <ele>458.4</ele>
        <time>2020-01-02T16:49:24Z</time>
      </trkpt>
      <trkpt lat="61.288781202842" lon="12.249955239766">
        <ele>457.4</ele>
        <time>2020-01-02T16:49:34Z</time>
      </trkpt>
      <trkpt lat="61.288380548022" lon="12.250460081603">
        <ele>457.6</ele>
        <time>2020-01-02T16:49:44Z</time>
      </trkpt>
      <trkpt lat="61.28813847875" lon="12.250783203848">
        <ele>457.6</ele>
        <time>2020-01-02T16:49:50Z</time>
      </trkpt>
      <trkpt lat="61.287864893534" lon="12.251220739028">
        <ele>456.6</ele>
        <time>2020-01-02T16:49:57Z</time>
      </trkpt>
      <trkpt lat="61.287634307465" lon="12.251629859567">
        <ele>455.6</ele>
        <time>2020-01-02T16:50:03Z</time>
      </trkpt>
      <trkpt lat="61.287510255345" lon="12.251810154236">
        <ele>454.2</ele>
        <time>2020-01-02T16:50:06Z</time>
      </trkpt>
      <trkpt lat="61.287354100548" lon="12.252040488848">
        <ele>453.2</ele>
        <time>2020-01-02T16:50:10Z</time>
      </trkpt>
      <trkpt lat="61.286952607538" lon="12.252574834973">
        <ele>452.2</ele>
        <time>2020-01-02T16:50:21Z</time>
      </trkpt>
      <trkpt lat="61.286761584037" lon="12.252757392755">
        <ele>452.2</ele>
        <time>2020-01-02T16:50:26Z</time>
      </trkpt>
      <trkpt lat="61.286295885673" lon="12.252906506756">
        <ele>452.4</ele>
        <time>2020-01-02T16:50:39Z</time>
      </trkpt>
      <trkpt lat="61.28602288719" lon="12.253056878042">
        <ele>453.2</ele>
        <time>2020-01-02T16:50:47Z</time>
      </trkpt>
      <trkpt lat="61.285827756558" lon="12.253159807774">
        <ele>454.4</ele>
        <time>2020-01-02T16:50:52Z</time>
      </trkpt>
      <trkpt lat="61.285649808821" lon="12.253252176312">
        <ele>453</ele>
        <time>2020-01-02T16:50:57Z</time>
      </trkpt>
      <trkpt lat="61.285207998872" lon="12.253562641888">
        <ele>453</ele>
        <time>2020-01-02T16:51:09Z</time>
      </trkpt>
      <trkpt lat="61.284752358788" lon="12.253866821039">
        <ele>454.2</ele>
        <time>2020-01-02T16:51:21Z</time>
      </trkpt>
      <trkpt lat="61.284328402286" lon="12.25416429467">
        <ele>454</ele>
        <time>2020-01-02T16:51:32Z</time>
      </trkpt>
      <trkpt lat="61.284027324438" lon="12.254392617626">
        <ele>453</ele>
        <time>2020-01-02T16:51:39Z</time>
      </trkpt>
      <trkpt lat="61.283669668765" lon="12.254642314427">
        <ele>452</ele>
        <time>2020-01-02T16:51:47Z</time>
      </trkpt>
      <trkpt lat="61.283246215177" lon="12.254953115279">
        <ele>452.8</ele>
        <time>2020-01-02T16:51:59Z</time>
      </trkpt>
      <trkpt lat="61.282978162015" lon="12.255112119922">
        <ele>453</ele>
        <time>2020-01-02T16:52:07Z</time>
      </trkpt>
      <trkpt lat="61.282658560168" lon="12.255272465669">
        <ele>454</ele>
        <time>2020-01-02T16:52:17Z</time>
      </trkpt>
      <trkpt lat="61.282225635033" lon="12.255558456097">
        <ele>454.4</ele>
        <time>2020-01-02T16:52:30Z</time>
      </trkpt>
      <trkpt lat="61.282011812764" lon="12.25575182653">
        <ele>455.2</ele>
        <time>2020-01-02T16:52:36Z</time>
      </trkpt>
      <trkpt lat="61.281584000588" lon="12.256101519398">
        <ele>454.4</ele>
        <time>2020-01-02T16:52:47Z</time>
      </trkpt>
      <trkpt lat="61.281194996609" lon="12.256586244675">
        <ele>454.8</ele>
        <time>2020-01-02T16:52:58Z</time>
      </trkpt>
      <trkpt lat="61.281067591729" lon="12.256793529062">
        <ele>454</ele>
        <time>2020-01-02T16:53:02Z</time>
      </trkpt>
      <trkpt lat="61.280714713739" lon="12.257384033917">
        <ele>454.4</ele>
        <time>2020-01-02T16:53:14Z</time>
      </trkpt>
      <trkpt lat="61.280411456597" lon="12.257614368529">
        <ele>455.2</ele>
        <time>2020-01-02T16:53:23Z</time>
      </trkpt>
      <trkpt lat="61.279960845653" lon="12.257925756114">
        <ele>455.4</ele>
        <time>2020-01-02T16:53:38Z</time>
      </trkpt>
      <trkpt lat="61.279787759418" lon="12.258035642823">
        <ele>456.2</ele>
        <time>2020-01-02T16:53:44Z</time>
      </trkpt>
      <trkpt lat="61.279642417272" lon="12.258141254763">
        <ele>457.2</ele>
        <time>2020-01-02T16:53:49Z</time>
      </trkpt>
      <trkpt lat="61.279519287161" lon="12.25824460359">
        <ele>458.4</ele>
        <time>2020-01-02T16:53:53Z</time>
      </trkpt>
      <trkpt lat="61.279089882424" lon="12.258640061632">
        <ele>458.6</ele>
        <time>2020-01-02T16:54:06Z</time>
      </trkpt>
      <trkpt lat="61.278668943406" lon="12.259012804725">
        <ele>457.8</ele>
        <time>2020-01-02T16:54:17Z</time>
      </trkpt>
      <trkpt lat="61.278317155063" lon="12.259313631116">
        <ele>457.4</ele>
        <time>2020-01-02T16:54:26Z</time>
      </trkpt>
      <trkpt lat="61.27809780074" lon="12.25943650977">
        <ele>458.4</ele>
        <time>2020-01-02T16:54:32Z</time>
      </trkpt>
      <trkpt lat="61.277661019931" lon="12.259649158573">
        <ele>457.6</ele>
        <time>2020-01-02T16:54:46Z</time>
      </trkpt>
      <trkpt lat="61.277408221827" lon="12.259779245661">
        <ele>459.6</ele>
        <time>2020-01-02T16:54:54Z</time>
      </trkpt>
      <trkpt lat="61.276942439644" lon="12.259957193398">
        <ele>459.4</ele>
        <time>2020-01-02T16:55:07Z</time>
      </trkpt>
      <trkpt lat="61.276654269922" lon="12.260112007091">
        <ele>461</ele>
        <time>2020-01-02T16:55:16Z</time>
      </trkpt>
      <trkpt lat="61.276318993922" lon="12.260280064186">
        <ele>459.8</ele>
        <time>2020-01-02T16:55:26Z</time>
      </trkpt>
      <trkpt lat="61.275875088498" lon="12.260443930331">
        <ele>459.8</ele>
        <time>2020-01-02T16:55:37Z</time>
      </trkpt>
      <trkpt lat="61.275701499349" lon="12.26051274573">
        <ele>460.8</ele>
        <time>2020-01-02T16:55:42Z</time>
      </trkpt>
      <trkpt lat="61.27536530134" lon="12.26067703097">
        <ele>462</ele>
        <time>2020-01-02T16:55:55Z</time>
      </trkpt>
      <trkpt lat="61.275225155972" lon="12.260765543834">
        <ele>463</ele>
        <time>2020-01-02T16:56:00Z</time>
      </trkpt>
      <trkpt lat="61.274773623019" lon="12.260915747482">
        <ele>464</ele>
        <time>2020-01-02T16:56:14Z</time>
      </trkpt>
      <trkpt lat="61.274737916125" lon="12.260930080531">
        <ele>464.2</ele>
        <time>2020-01-02T16:56:15Z</time>
      </trkpt>
      <trkpt lat="61.274402053392" lon="12.261083050206">
        <ele>463.4</ele>
        <time>2020-01-02T16:56:24Z</time>
      </trkpt>
      <trkpt lat="61.273930403879" lon="12.261243312134">
        <ele>464.4</ele>
        <time>2020-01-02T16:56:38Z</time>
      </trkpt>
      <trkpt lat="61.273462358583" lon="12.261435257644">
        <ele>465</ele>
        <time>2020-01-02T16:56:53Z</time>
      </trkpt>
      <trkpt lat="61.273412234821" lon="12.261445064467">
        <ele>465.2</ele>
        <time>2020-01-02T16:56:55Z</time>
      </trkpt>
      <trkpt lat="61.273250799427" lon="12.26148672251">
        <ele>466.4</ele>
        <time>2020-01-02T16:57:01Z</time>
      </trkpt>
      <trkpt lat="61.273078132287" lon="12.26152444106">
        <ele>467.6</ele>
        <time>2020-01-02T16:57:08Z</time>
      </trkpt>
      <trkpt lat="61.272685943186" lon="12.261661988039">
        <ele>468.6</ele>
        <time>2020-01-02T16:57:22Z</time>
      </trkpt>
      <trkpt lat="61.272585947119" lon="12.261728707963">
        <ele>469.6</ele>
        <time>2020-01-02T16:57:26Z</time>
      </trkpt>
      <trkpt lat="61.272420069318" lon="12.261843959088">
        <ele>470.8</ele>
        <time>2020-01-02T16:57:33Z</time>
      </trkpt>
      <trkpt lat="61.272225022505" lon="12.261924928242">
        <ele>471.8</ele>
        <time>2020-01-02T16:57:41Z</time>
      </trkpt>
      <trkpt lat="61.271755803743" lon="12.262090303129">
        <ele>472.4</ele>
        <time>2020-01-02T16:57:57Z</time>
      </trkpt>
      <trkpt lat="61.271456653732" lon="12.262156687777">
        <ele>473</ele>
        <time>2020-01-02T16:58:06Z</time>
      </trkpt>
      <trkpt lat="61.27100252239" lon="12.26226875378">
        <ele>473.4</ele>
        <time>2020-01-02T16:58:19Z</time>
      </trkpt>
      <trkpt lat="61.270833291829" lon="12.262319799551">
        <ele>474</ele>
        <time>2020-01-02T16:58:25Z</time>
      </trkpt>
      <trkpt lat="61.270703204741" lon="12.262353746246">
        <ele>475</ele>
        <time>2020-01-02T16:58:30Z</time>
      </trkpt>
      <trkpt lat="61.270374131347" lon="12.262350561124">
        <ele>476.2</ele>
        <time>2020-01-02T16:58:41Z</time>
      </trkpt>
      <trkpt lat="61.269923352765" lon="12.262425327672">
        <ele>476</ele>
        <time>2020-01-02T16:58:53Z</time>
      </trkpt>
      <trkpt lat="61.269509622181" lon="12.262606963445">
        <ele>477.4</ele>
        <time>2020-01-02T16:59:08Z</time>
      </trkpt>
      <trkpt lat="61.269335530118" lon="12.262685920943">
        <ele>478.6</ele>
        <time>2020-01-02T16:59:14Z</time>
      </trkpt>
      <trkpt lat="61.269219524622" lon="12.262724226226">
        <ele>479.8</ele>
        <time>2020-01-02T16:59:18Z</time>
      </trkpt>
      <trkpt lat="61.26875365862" lon="12.262687178228">
        <ele>480.4</ele>
        <time>2020-01-02T16:59:34Z</time>
      </trkpt>
      <trkpt lat="61.268676293683" lon="12.262675443568">
        <ele>480.8</ele>
        <time>2020-01-02T16:59:37Z</time>
      </trkpt>
      <trkpt lat="61.268606556275" lon="12.262679131604">
        <ele>481.8</ele>
        <time>2020-01-02T16:59:40Z</time>
      </trkpt>
      <trkpt lat="61.268457609912" lon="12.262646945108">
        <ele>482.4</ele>
        <time>2020-01-02T16:59:46Z</time>
      </trkpt>
      <trkpt lat="61.268204979446" lon="12.262588439446">
        <ele>482.8</ele>
        <time>2020-01-02T16:59:56Z</time>
      </trkpt>
      <trkpt lat="61.267746908611" lon="12.262401942171">
        <ele>483.6</ele>
        <time>2020-01-02T17:00:11Z</time>
      </trkpt>
      <trkpt lat="61.267680021049" lon="12.262382579982">
        <ele>484</ele>
        <time>2020-01-02T17:00:13Z</time>
      </trkpt>
      <trkpt lat="61.26723402015" lon="12.262258360224">
        <ele>484.8</ele>
        <time>2020-01-02T17:00:26Z</time>
      </trkpt>
      <trkpt lat="61.266851637872" lon="12.262418035419">
        <ele>485.2</ele>
        <time>2020-01-02T17:00:38Z</time>
      </trkpt>
      <trkpt lat="61.266671510841" lon="12.262512164156">
        <ele>486.2</ele>
        <time>2020-01-02T17:00:46Z</time>
      </trkpt>
      <trkpt lat="61.26658609928" lon="12.262559773348">
        <ele>487.6</ele>
        <time>2020-01-02T17:00:50Z</time>
      </trkpt>
      <trkpt lat="61.266436147089" lon="12.262671587894">
        <ele>488.6</ele>
        <time>2020-01-02T17:00:58Z</time>
      </trkpt>
      <trkpt lat="61.266375545952" lon="12.262715257593">
        <ele>489.8</ele>
        <time>2020-01-02T17:01:01Z</time>
      </trkpt>
      <trkpt lat="61.266272364763" lon="12.262827910329">
        <ele>491.2</ele>
        <time>2020-01-02T17:01:06Z</time>
      </trkpt>
      <trkpt lat="61.266056782295" lon="12.263109709807">
        <ele>492.2</ele>
        <time>2020-01-02T17:01:17Z</time>
      </trkpt>
      <trkpt lat="61.265702814658" lon="12.263818231814">
        <ele>491.6</ele>
        <time>2020-01-02T17:01:31Z</time>
      </trkpt>
      <trkpt lat="61.265666018117" lon="12.26388310772">
        <ele>490.8</ele>
        <time>2020-01-02T17:01:32Z</time>
      </trkpt>
      <trkpt lat="61.2655953587" lon="12.264024678011">
        <ele>489.2</ele>
        <time>2020-01-02T17:01:34Z</time>
      </trkpt>
      <trkpt lat="61.265505253275" lon="12.264191226364">
        <ele>487.8</ele>
        <time>2020-01-02T17:01:36Z</time>
      </trkpt>
      <trkpt lat="61.265404502837" lon="12.264365234608">
        <ele>486.4</ele>
        <time>2020-01-02T17:01:38Z</time>
      </trkpt>
      <trkpt lat="61.265204007789" lon="12.264714340743">
        <ele>488.2</ele>
        <time>2020-01-02T17:01:43Z</time>
      </trkpt>
      <trkpt lat="61.265137790779" lon="12.264827328755">
        <ele>489.2</ele>
        <time>2020-01-02T17:01:45Z</time>
      </trkpt>
      <trkpt lat="61.264893458394" lon="12.265085742732">
        <ele>490.4</ele>
        <time>2020-01-02T17:01:52Z</time>
      </trkpt>
      <trkpt lat="61.264457431956" lon="12.265356059007">
        <ele>490.2</ele>
        <time>2020-01-02T17:02:02Z</time>
      </trkpt>
      <trkpt lat="61.264299600779" lon="12.265442476396">
        <ele>489.2</ele>
        <time>2020-01-02T17:02:06Z</time>
      </trkpt>
      <trkpt lat="61.263828705637" lon="12.265578011719">
        <ele>489</ele>
        <time>2020-01-02T17:02:20Z</time>
      </trkpt>
      <trkpt lat="61.263451017223" lon="12.265538952065">
        <ele>490.4</ele>
        <time>2020-01-02T17:02:32Z</time>
      </trkpt>
      <trkpt lat="61.263314308434" lon="12.265454043418">
        <ele>491.6</ele>
        <time>2020-01-02T17:02:36Z</time>
      </trkpt>
      <trkpt lat="61.263054720991" lon="12.265304258865">
        <ele>493</ele>
        <time>2020-01-02T17:02:46Z</time>
      </trkpt>
      <trkpt lat="61.262883394955" lon="12.265281627735">
        <ele>494</ele>
        <time>2020-01-02T17:02:53Z</time>
      </trkpt>
      <trkpt lat="61.262728497443" lon="12.265295960784">
        <ele>495.6</ele>
        <time>2020-01-02T17:03:00Z</time>
      </trkpt>
      <trkpt lat="61.262496654089" lon="12.265406853321">
        <ele>496.8</ele>
        <time>2020-01-02T17:03:10Z</time>
      </trkpt>
      <trkpt lat="61.262049731181" lon="12.26578328445">
        <ele>497.2</ele>
        <time>2020-01-02T17:03:24Z</time>
      </trkpt>
      <trkpt lat="61.261715041914" lon="12.265827121787">
        <ele>498</ele>
        <time>2020-01-02T17:03:37Z</time>
      </trkpt>
      <trkpt lat="61.261630636181" lon="12.265772304161">
        <ele>499</ele>
        <time>2020-01-02T17:03:41Z</time>
      </trkpt>
      <trkpt lat="61.261520581834" lon="12.265679935623">
        <ele>500</ele>
        <time>2020-01-02T17:03:46Z</time>
      </trkpt>
      <trkpt lat="61.261406504175" lon="12.265487151923">
        <ele>501.2</ele>
        <time>2020-01-02T17:03:52Z</time>
      </trkpt>
      <trkpt lat="61.26125101993" lon="12.264936544912">
        <ele>502.2</ele>
        <time>2020-01-02T17:04:05Z</time>
      </trkpt>
      <trkpt lat="61.261211792638" lon="12.264679891134">
        <ele>503.2</ele>
        <time>2020-01-02T17:04:11Z</time>
      </trkpt>
      <trkpt lat="61.26122671242" lon="12.264379819114">
        <ele>504.4</ele>
        <time>2020-01-02T17:04:17Z</time>
      </trkpt>
      <trkpt lat="61.261250600835" lon="12.264146634656">
        <ele>505.8</ele>
        <time>2020-01-02T17:04:22Z</time>
      </trkpt>
      <trkpt lat="61.261292175059" lon="12.263772299002">
        <ele>507</ele>
        <time>2020-01-02T17:04:30Z</time>
      </trkpt>
      <trkpt lat="61.261295108724" lon="12.263215489385">
        <ele>508.4</ele>
        <time>2020-01-02T17:04:42Z</time>
      </trkpt>
      <trkpt lat="61.261278596381" lon="12.263025806988">
        <ele>509.4</ele>
        <time>2020-01-02T17:04:46Z</time>
      </trkpt>
      <trkpt lat="61.261212547009" lon="12.262616351173">
        <ele>510.6</ele>
        <time>2020-01-02T17:04:55Z</time>
      </trkpt>
      <trkpt lat="61.26118396473" lon="12.26241543703">
        <ele>511.8</ele>
        <time>2020-01-02T17:04:59Z</time>
      </trkpt>
      <trkpt lat="61.261130907303" lon="12.26207680827">
        <ele>513</ele>
        <time>2020-01-02T17:05:07Z</time>
      </trkpt>
      <trkpt lat="61.261085477405" lon="12.261731976904">
        <ele>514</ele>
        <time>2020-01-02T17:05:15Z</time>
      </trkpt>
      <trkpt lat="61.261040550421" lon="12.261283461435">
        <ele>515.2</ele>
        <time>2020-01-02T17:05:25Z</time>
      </trkpt>
      <trkpt lat="61.260999898206" lon="12.261063771836">
        <ele>516.4</ele>
        <time>2020-01-02T17:05:31Z</time>
      </trkpt>
      <trkpt lat="61.260968046986" lon="12.2608589182">
        <ele>517.6</ele>
        <time>2020-01-02T17:05:36Z</time>
      </trkpt>
      <trkpt lat="61.260902751985" lon="12.260445606711">
        <ele>518.8</ele>
        <time>2020-01-02T17:05:47Z</time>
      </trkpt>
      <trkpt lat="61.260876851914" lon="12.260265731137">
        <ele>519.8</ele>
        <time>2020-01-02T17:05:52Z</time>
      </trkpt>
      <trkpt lat="61.260854807517" lon="12.260108989607">
        <ele>520.8</ele>
        <time>2020-01-02T17:05:56Z</time>
      </trkpt>
      <trkpt lat="61.260804516117" lon="12.259709592072">
        <ele>522</ele>
        <time>2020-01-02T17:06:04Z</time>
      </trkpt>
      <trkpt lat="61.260778699865" lon="12.259345482336">
        <ele>523</ele>
        <time>2020-01-02T17:06:12Z</time>
      </trkpt>
      <trkpt lat="61.260780543883" lon="12.259024287928">
        <ele>524.2</ele>
        <time>2020-01-02T17:06:19Z</time>
      </trkpt>
      <trkpt lat="61.260813652388" lon="12.258657076889">
        <ele>525.2</ele>
        <time>2020-01-02T17:06:27Z</time>
      </trkpt>
      <trkpt lat="61.260889173307" lon="12.258251225291">
        <ele>526.2</ele>
        <time>2020-01-02T17:06:36Z</time>
      </trkpt>
      <trkpt lat="61.261068043053" lon="12.257749568576">
        <ele>527.2</ele>
        <time>2020-01-02T17:06:48Z</time>
      </trkpt>
      <trkpt lat="61.261157477926" lon="12.2574558668">
        <ele>528.2</ele>
        <time>2020-01-02T17:06:54Z</time>
      </trkpt>
      <trkpt lat="61.261222270013" lon="12.257259227426">
        <ele>529.4</ele>
        <time>2020-01-02T17:06:58Z</time>
      </trkpt>
      <trkpt lat="61.261478001782" lon="12.256453810655">
        <ele>529.2</ele>
        <time>2020-01-02T17:07:13Z</time>
      </trkpt>
      <trkpt lat="61.261603981739" lon="12.255791053822">
        <ele>530.6</ele>
        <time>2020-01-02T17:07:24Z</time>
      </trkpt>
      <trkpt lat="61.261664499057" lon="12.254940877705">
        <ele>531.8</ele>
        <time>2020-01-02T17:07:38Z</time>
      </trkpt>
      <trkpt lat="61.261657625899" lon="12.254540725799">
        <ele>533</ele>
        <time>2020-01-02T17:07:46Z</time>
      </trkpt>
      <trkpt lat="61.26164077828" lon="12.25423637901">
        <ele>534.2</ele>
        <time>2020-01-02T17:07:52Z</time>
      </trkpt>
      <trkpt lat="61.261613285648" lon="12.253973522626">
        <ele>535.4</ele>
        <time>2020-01-02T17:07:57Z</time>
      </trkpt>
      <trkpt lat="61.261545392258" lon="12.25367730628">
        <ele>536.4</ele>
        <time>2020-01-02T17:08:03Z</time>
      </trkpt>
      <trkpt lat="61.261430727866" lon="12.253171710072">
        <ele>537.6</ele>
        <time>2020-01-02T17:08:15Z</time>
      </trkpt>
      <trkpt lat="61.261389488918" lon="12.252917822321">
        <ele>538.2</ele>
        <time>2020-01-02T17:08:20Z</time>
      </trkpt>
      <trkpt lat="61.261370378186" lon="12.252780023885">
        <ele>538.6</ele>
        <time>2020-01-02T17:08:23Z</time>
      </trkpt>
      <trkpt lat="61.261340790079" lon="12.252413483398">
        <ele>539.6</ele>
        <time>2020-01-02T17:08:31Z</time>
      </trkpt>
      <trkpt lat="61.261365432865" lon="12.252004949592">
        <ele>540.8</ele>
        <time>2020-01-02T17:08:39Z</time>
      </trkpt>
      <trkpt lat="61.261478923791" lon="12.251595326139">
        <ele>542</ele>
        <time>2020-01-02T17:08:49Z</time>
      </trkpt>
      <trkpt lat="61.261825515356" lon="12.250945561251">
        <ele>543</ele>
        <time>2020-01-02T17:09:06Z</time>
      </trkpt>
      <trkpt lat="61.261940682662" lon="12.250721596883">
        <ele>543</ele>
        <time>2020-01-02T17:09:11Z</time>
      </trkpt>
      <trkpt lat="61.262037912702" lon="12.250406018348">
        <ele>544.2</ele>
        <time>2020-01-02T17:09:17Z</time>
      </trkpt>
      <trkpt lat="61.262089880482" lon="12.249829092171">
        <ele>545.2</ele>
        <time>2020-01-02T17:09:29Z</time>
      </trkpt>
      <trkpt lat="61.262165149944" lon="12.24957436623">
        <ele>546.2</ele>
        <time>2020-01-02T17:09:35Z</time>
      </trkpt>
      <trkpt lat="61.262309570081" lon="12.249355179545">
        <ele>547.2</ele>
        <time>2020-01-02T17:09:42Z</time>
      </trkpt>
      <trkpt lat="61.26260050583" lon="12.248931558319">
        <ele>548.2</ele>
        <time>2020-01-02T17:09:54Z</time>
      </trkpt>
      <trkpt lat="61.262729000357" lon="12.248676245645">
        <ele>549.4</ele>
        <time>2020-01-02T17:10:01Z</time>
      </trkpt>
      <trkpt lat="61.263011889482" lon="12.248311549176">
        <ele>550.4</ele>
        <time>2020-01-02T17:10:12Z</time>
      </trkpt>
      <trkpt lat="61.263153459773" lon="12.247773850291">
        <ele>551.6</ele>
        <time>2020-01-02T17:10:24Z</time>
      </trkpt>
      <trkpt lat="61.263186652097" lon="12.247581401867">
        <ele>552.6</ele>
        <time>2020-01-02T17:10:28Z</time>
      </trkpt>
      <trkpt lat="61.26332134923" lon="12.24731963513">
        <ele>553.6</ele>
        <time>2020-01-02T17:10:35Z</time>
      </trkpt>
      <trkpt lat="61.263728625751" lon="12.24695250791">
        <ele>553.8</ele>
        <time>2020-01-02T17:10:49Z</time>
      </trkpt>
      <trkpt lat="61.264176805944" lon="12.246657548849">
        <ele>553.8</ele>
        <time>2020-01-02T17:11:01Z</time>
      </trkpt>
      <trkpt lat="61.264334301845" lon="12.246401397985">
        <ele>554.8</ele>
        <time>2020-01-02T17:11:09Z</time>
      </trkpt>
      <trkpt lat="61.264780051287" lon="12.246134685927">
        <ele>555.6</ele>
        <time>2020-01-02T17:11:22Z</time>
      </trkpt>
      <trkpt lat="61.264879209164" lon="12.246137032859">
        <ele>555.6</ele>
        <time>2020-01-02T17:11:24Z</time>
      </trkpt>
      <trkpt lat="61.264988592959" lon="12.246158239066">
        <ele>555.6</ele>
        <time>2020-01-02T17:11:26Z</time>
      </trkpt>
      <trkpt lat="61.265443227215" lon="12.246127561312">
        <ele>554.4</ele>
        <time>2020-01-02T17:11:35Z</time>
      </trkpt>
      <trkpt lat="61.265768109659" lon="12.24611683248">
        <ele>553.8</ele>
        <time>2020-01-02T17:11:41Z</time>
      </trkpt>
      <trkpt lat="61.265980255548" lon="12.24610845058">
        <ele>553.6</ele>
        <time>2020-01-02T17:11:45Z</time>
      </trkpt>
      <trkpt lat="61.26608234709" lon="12.246069642383">
        <ele>553.6</ele>
        <time>2020-01-02T17:11:47Z</time>
      </trkpt>
      <trkpt lat="61.266462633893" lon="12.245494979319">
        <ele>553.4</ele>
        <time>2020-01-02T17:12:00Z</time>
      </trkpt>
      <trkpt lat="61.266516780967" lon="12.245405292989">
        <ele>554.8</ele>
        <time>2020-01-02T17:12:03Z</time>
      </trkpt>
      <trkpt lat="61.266896397218" lon="12.244824930233">
        <ele>554</ele>
        <time>2020-01-02T17:12:15Z</time>
      </trkpt>
      <trkpt lat="61.266972337232" lon="12.244723593062">
        <ele>554</ele>
        <time>2020-01-02T17:12:17Z</time>
      </trkpt>
      <trkpt lat="61.267391013137" lon="12.244260157811">
        <ele>554</ele>
        <time>2020-01-02T17:12:28Z</time>
      </trkpt>
      <trkpt lat="61.26768664275" lon="12.243960840162">
        <ele>553.8</ele>
        <time>2020-01-02T17:12:35Z</time>
      </trkpt>
      <trkpt lat="61.267720673264" lon="12.243905016708">
        <ele>553.6</ele>
        <time>2020-01-02T17:12:36Z</time>
      </trkpt>
      <trkpt lat="61.267861405365" lon="12.243336891526">
        <ele>554.8</ele>
        <time>2020-01-02T17:12:47Z</time>
      </trkpt>
      <trkpt lat="61.267843468099" lon="12.243073113133">
        <ele>556</ele>
        <time>2020-01-02T17:12:53Z</time>
      </trkpt>
      <trkpt lat="61.267829470326" lon="12.242942439312">
        <ele>557.2</ele>
        <time>2020-01-02T17:12:56Z</time>
      </trkpt>
      <trkpt lat="61.267798289658" lon="12.24265762235">
        <ele>558.4</ele>
        <time>2020-01-02T17:13:02Z</time>
      </trkpt>
      <trkpt lat="61.267775742347" lon="12.242484200839">
        <ele>559.6</ele>
        <time>2020-01-02T17:13:06Z</time>
      </trkpt>
      <trkpt lat="61.267741208919" lon="12.242234504038">
        <ele>560.8</ele>
        <time>2020-01-02T17:13:12Z</time>
      </trkpt>
      <trkpt lat="61.267683206171" lon="12.241810044622">
        <ele>561.8</ele>
        <time>2020-01-02T17:13:22Z</time>
      </trkpt>
      <trkpt lat="61.267665101267" lon="12.241602676416">
        <ele>562.8</ele>
        <time>2020-01-02T17:13:27Z</time>
      </trkpt>
      <trkpt lat="61.267672644977" lon="12.241294222496">
        <ele>564.2</ele>
        <time>2020-01-02T17:13:34Z</time>
      </trkpt>
      <trkpt lat="61.267709106242" lon="12.240971854622">
        <ele>565.4</ele>
        <time>2020-01-02T17:13:42Z</time>
      </trkpt>
      <trkpt lat="61.267725870042" lon="12.240787536641">
        <ele>566.4</ele>
        <time>2020-01-02T17:13:46Z</time>
      </trkpt>
      <trkpt lat="61.267824608824" lon="12.240253274335">
        <ele>567.4</ele>
        <time>2020-01-02T17:13:58Z</time>
      </trkpt>
      <trkpt lat="61.268144713585" lon="12.239776008949">
        <ele>568.6</ele>
        <time>2020-01-02T17:14:12Z</time>
      </trkpt>
      <trkpt lat="61.268363229718" lon="12.239416676896">
        <ele>569.6</ele>
        <time>2020-01-02T17:14:21Z</time>
      </trkpt>
      <trkpt lat="61.268790622799" lon="12.239055333187">
        <ele>569.8</ele>
        <time>2020-01-02T17:14:34Z</time>
      </trkpt>
      <trkpt lat="61.26907887634" lon="12.238785687464">
        <ele>569.2</ele>
        <time>2020-01-02T17:14:41Z</time>
      </trkpt>
      <trkpt lat="61.26916437172" lon="12.238658198765">
        <ele>568.8</ele>
        <time>2020-01-02T17:14:43Z</time>
      </trkpt>
      <trkpt lat="61.269250956747" lon="12.238463571047">
        <ele>568.6</ele>
        <time>2020-01-02T17:14:46Z</time>
      </trkpt>
      <trkpt lat="61.269275431895" lon="12.238406238851">
        <ele>568.6</ele>
        <time>2020-01-02T17:14:47Z</time>
      </trkpt>
      <trkpt lat="61.269441728791" lon="12.237753791755">
        <ele>569.6</ele>
        <time>2020-01-02T17:14:59Z</time>
      </trkpt>
      <trkpt lat="61.269517920262" lon="12.2374482715">
        <ele>570.8</ele>
        <time>2020-01-02T17:15:07Z</time>
      </trkpt>
      <trkpt lat="61.269566786739" lon="12.237332182185">
        <ele>572</ele>
        <time>2020-01-02T17:15:10Z</time>
      </trkpt>
      <trkpt lat="61.269665441702" lon="12.237117521726">
        <ele>573</ele>
        <time>2020-01-02T17:15:15Z</time>
      </trkpt>
      <trkpt lat="61.269827631467" lon="12.236501871171">
        <ele>574.2</ele>
        <time>2020-01-02T17:15:28Z</time>
      </trkpt>
      <trkpt lat="61.269904242033" lon="12.236206995929">
        <ele>575.2</ele>
        <time>2020-01-02T17:15:34Z</time>
      </trkpt>
      <trkpt lat="61.269948582284" lon="12.235843389107">
        <ele>576.2</ele>
        <time>2020-01-02T17:15:42Z</time>
      </trkpt>
      <trkpt lat="61.269965848998" lon="12.235590674822">
        <ele>577.4</ele>
        <time>2020-01-02T17:15:48Z</time>
      </trkpt>
      <trkpt lat="61.269976913106" lon="12.235293620286">
        <ele>578.6</ele>
        <time>2020-01-02T17:15:55Z</time>
      </trkpt>
      <trkpt lat="61.269981271694" lon="12.235086922632">
        <ele>579.8</ele>
        <time>2020-01-02T17:16:00Z</time>
      </trkpt>
      <trkpt lat="61.270007423222" lon="12.234719041041">
        <ele>581</ele>
        <time>2020-01-02T17:16:08Z</time>
      </trkpt>
      <trkpt lat="61.270046231419" lon="12.23418016869">
        <ele>582.2</ele>
        <time>2020-01-02T17:16:20Z</time>
      </trkpt>
      <trkpt lat="61.270090068756" lon="12.233791332349">
        <ele>583.2</ele>
        <time>2020-01-02T17:16:29Z</time>
      </trkpt>
      <trkpt lat="61.270106413461" lon="12.233606259997">
        <ele>584</ele>
        <time>2020-01-02T17:16:33Z</time>
      </trkpt>
      <trkpt lat="61.270123177261" lon="12.233445243698">
        <ele>584.2</ele>
        <time>2020-01-02T17:16:36Z</time>
      </trkpt>
      <trkpt lat="61.270162488372" lon="12.23300921726">
        <ele>585.4</ele>
        <time>2020-01-02T17:16:45Z</time>
      </trkpt>
      <trkpt lat="61.270215797256" lon="12.232672181061">
        <ele>586.4</ele>
        <time>2020-01-02T17:16:53Z</time>
      </trkpt>
      <trkpt lat="61.27025401872" lon="12.232450060711">
        <ele>587.8</ele>
        <time>2020-01-02T17:16:58Z</time>
      </trkpt>
      <trkpt lat="61.270286959587" lon="12.231910266351">
        <ele>588.8</ele>
        <time>2020-01-02T17:17:08Z</time>
      </trkpt>
      <trkpt lat="61.270245217725" lon="12.231212556995">
        <ele>589.8</ele>
        <time>2020-01-02T17:17:23Z</time>
      </trkpt>
      <trkpt lat="61.270227029002" lon="12.2309858266">
        <ele>591</ele>
        <time>2020-01-02T17:17:28Z</time>
      </trkpt>
      <trkpt lat="61.270190400099" lon="12.2304996764">
        <ele>592</ele>
        <time>2020-01-02T17:17:38Z</time>
      </trkpt>
      <trkpt lat="61.270172965747" lon="12.230168256074">
        <ele>593.2</ele>
        <time>2020-01-02T17:17:45Z</time>
      </trkpt>
      <trkpt lat="61.27015259773" lon="12.22970088133">
        <ele>594.2</ele>
        <time>2020-01-02T17:17:54Z</time>
      </trkpt>
      <trkpt lat="61.270155866671" lon="12.229319923975">
        <ele>595.4</ele>
        <time>2020-01-02T17:18:02Z</time>
      </trkpt>
      <trkpt lat="61.270169612987" lon="12.229045835845">
        <ele>596.4</ele>
        <time>2020-01-02T17:18:08Z</time>
      </trkpt>
      <trkpt lat="61.270184868045" lon="12.228817261432">
        <ele>597.4</ele>
        <time>2020-01-02T17:18:13Z</time>
      </trkpt>
      <trkpt lat="61.270251001236" lon="12.228141177378">
        <ele>598.6</ele>
        <time>2020-01-02T17:18:27Z</time>
      </trkpt>
      <trkpt lat="61.270264831371" lon="12.227997846888">
        <ele>598.4</ele>
        <time>2020-01-02T17:18:31Z</time>
      </trkpt>
      <trkpt lat="61.270328198535" lon="12.227909920757">
        <ele>598.4</ele>
        <time>2020-01-02T17:18:35Z</time>
      </trkpt>
      <trkpt lat="61.270425596213" lon="12.227726608604">
        <ele>599.6</ele>
        <time>2020-01-02T17:18:39Z</time>
      </trkpt>
      <trkpt lat="61.27068652476" lon="12.227332659304">
        <ele>600.4</ele>
        <time>2020-01-02T17:18:48Z</time>
      </trkpt>
      <trkpt lat="61.270781826963" lon="12.227319415902">
        <ele>600.2</ele>
        <time>2020-01-02T17:18:50Z</time>
      </trkpt>
      <trkpt lat="61.270883667048" lon="12.227354368425">
        <ele>599.8</ele>
        <time>2020-01-02T17:18:52Z</time>
      </trkpt>
      <trkpt lat="61.271105703579" lon="12.227505745539">
        <ele>598.2</ele>
        <time>2020-01-02T17:18:56Z</time>
      </trkpt>
      <trkpt lat="61.271215003555" lon="12.227579254802">
        <ele>596.4</ele>
        <time>2020-01-02T17:18:58Z</time>
      </trkpt>
      <trkpt lat="61.27132522554" lon="12.227651422961">
        <ele>595.2</ele>
        <time>2020-01-02T17:19:00Z</time>
      </trkpt>
      <trkpt lat="61.271498814689" lon="12.227776900004">
        <ele>593.6</ele>
        <time>2020-01-02T17:19:03Z</time>
      </trkpt>
      <trkpt lat="61.271693945321" lon="12.227863736488">
        <ele>592.6</ele>
        <time>2020-01-02T17:19:06Z</time>
      </trkpt>
      <trkpt lat="61.271764940014" lon="12.227873878587">
        <ele>592.4</ele>
        <time>2020-01-02T17:19:07Z</time>
      </trkpt>
      <trkpt lat="61.271968033451" lon="12.227899527201">
        <ele>591</ele>
        <time>2020-01-02T17:19:10Z</time>
      </trkpt>
      <trkpt lat="61.272167690309" lon="12.227924169987">
        <ele>590.2</ele>
        <time>2020-01-02T17:19:13Z</time>
      </trkpt>
      <trkpt lat="61.272241115753" lon="12.227904137246">
        <ele>589.8</ele>
        <time>2020-01-02T17:19:14Z</time>
      </trkpt>
      <trkpt lat="61.272666413359" lon="12.227537680578">
        <ele>589.4</ele>
        <time>2020-01-02T17:19:20Z</time>
      </trkpt>
      <trkpt lat="61.272819466853" lon="12.227352440588">
        <ele>591</ele>
        <time>2020-01-02T17:19:23Z</time>
      </trkpt>
      <trkpt lat="61.273201597674" lon="12.226827733648">
        <ele>590.6</ele>
        <time>2020-01-02T17:19:32Z</time>
      </trkpt>
      <trkpt lat="61.273235125274" lon="12.226771658737">
        <ele>590.8</ele>
        <time>2020-01-02T17:19:33Z</time>
      </trkpt>
      <trkpt lat="61.273334869884" lon="12.22656437435">
        <ele>590.6</ele>
        <time>2020-01-02T17:19:36Z</time>
      </trkpt>
      <trkpt lat="61.273416090495" lon="12.226338733602">
        <ele>590.4</ele>
        <time>2020-01-02T17:19:39Z</time>
      </trkpt>
      <trkpt lat="61.273462777678" lon="12.226179561321">
        <ele>590</ele>
        <time>2020-01-02T17:19:41Z</time>
      </trkpt>
      <trkpt lat="61.273534945837" lon="12.225973282762">
        <ele>589.8</ele>
        <time>2020-01-02T17:19:44Z</time>
      </trkpt>
      <trkpt lat="61.273598899734" lon="12.225863144596">
        <ele>589.6</ele>
        <time>2020-01-02T17:19:46Z</time>
      </trkpt>
      <trkpt lat="61.273681042354" lon="12.22578821041">
        <ele>589.6</ele>
        <time>2020-01-02T17:19:48Z</time>
      </trkpt>
      <trkpt lat="61.273856307883" lon="12.225729453291">
        <ele>589</ele>
        <time>2020-01-02T17:19:52Z</time>
      </trkpt>
      <trkpt lat="61.273957561235" lon="12.225751916783">
        <ele>588.8</ele>
        <time>2020-01-02T17:19:54Z</time>
      </trkpt>
      <trkpt lat="61.274155374075" lon="12.225961129007">
        <ele>588</ele>
        <time>2020-01-02T17:19:58Z</time>
      </trkpt>
      <trkpt lat="61.27424045036" lon="12.226079649073">
        <ele>587.6</ele>
        <time>2020-01-02T17:20:00Z</time>
      </trkpt>
      <trkpt lat="61.274282611317" lon="12.226142597142">
        <ele>587.6</ele>
        <time>2020-01-02T17:20:01Z</time>
      </trkpt>
      <trkpt lat="61.274590562323" lon="12.226621958003">
        <ele>586.4</ele>
        <time>2020-01-02T17:20:08Z</time>
      </trkpt>
      <trkpt lat="61.274689468743" lon="12.226741819173">
        <ele>586.2</ele>
        <time>2020-01-02T17:20:10Z</time>
      </trkpt>
      <trkpt lat="61.274790638276" lon="12.226797642627">
        <ele>585.6</ele>
        <time>2020-01-02T17:20:12Z</time>
      </trkpt>
      <trkpt lat="61.27486909286" lon="12.226802923224">
        <ele>585.2</ele>
        <time>2020-01-02T17:20:14Z</time>
      </trkpt>
      <trkpt lat="61.27516832669" lon="12.226909876268">
        <ele>586.4</ele>
        <time>2020-01-02T17:20:23Z</time>
      </trkpt>
      <trkpt lat="61.275290618611" lon="12.227006771032">
        <ele>587.2</ele>
        <time>2020-01-02T17:20:26Z</time>
      </trkpt>
      <trkpt lat="61.275373515602" lon="12.22708572853">
        <ele>587.4</ele>
        <time>2020-01-02T17:20:28Z</time>
      </trkpt>
      <trkpt lat="61.275457334602" lon="12.227161333268">
        <ele>587.6</ele>
        <time>2020-01-02T17:20:30Z</time>
      </trkpt>
      <trkpt lat="61.275870143177" lon="12.227595431869">
        <ele>587.6</ele>
        <time>2020-01-02T17:20:41Z</time>
      </trkpt>
      <trkpt lat="61.276241628985" lon="12.228198593393">
        <ele>588.2</ele>
        <time>2020-01-02T17:20:54Z</time>
      </trkpt>
      <trkpt lat="61.276518147866" lon="12.228722797419">
        <ele>588.4</ele>
        <time>2020-01-02T17:21:04Z</time>
      </trkpt>
      <trkpt lat="61.276583023772" lon="12.228857410733">
        <ele>588.6</ele>
        <time>2020-01-02T17:21:06Z</time>
      </trkpt>
      <trkpt lat="61.276810424719" lon="12.229514048779">
        <ele>588</ele>
        <time>2020-01-02T17:21:14Z</time>
      </trkpt>
      <trkpt lat="61.277016619459" lon="12.229551012958">
        <ele>588.6</ele>
        <time>2020-01-02T17:21:22Z</time>
      </trkpt>
      <trkpt lat="61.277136899724" lon="12.229462583913">
        <ele>589.6</ele>
        <time>2020-01-02T17:21:27Z</time>
      </trkpt>
      <trkpt lat="61.277157938293" lon="12.22941338216">
        <ele>589.8</ele>
        <time>2020-01-02T17:21:28Z</time>
      </trkpt>
      <trkpt lat="61.277221808371" lon="12.229253623146">
        <ele>590.6</ele>
        <time>2020-01-02T17:21:32Z</time>
      </trkpt>
      <trkpt lat="61.277246702614" lon="12.229244403056">
        <ele>590.8</ele>
        <time>2020-01-02T17:21:34Z</time>
      </trkpt>
      <trkpt lat="61.277307136113" lon="12.229693002344">
        <ele>591</ele>
        <time>2020-01-02T17:21:42Z</time>
      </trkpt>
      <trkpt lat="61.277458848503" lon="12.229996594762">
        <ele>592</ele>
        <time>2020-01-02T17:21:49Z</time>
      </trkpt>
      <trkpt lat="61.277568399936" lon="12.230202538045">
        <ele>593</ele>
        <time>2020-01-02T17:21:55Z</time>
      </trkpt>
      <trkpt lat="61.27780359605" lon="12.230380066687">
        <ele>594.2</ele>
        <time>2020-01-02T17:22:05Z</time>
      </trkpt>
      <trkpt lat="61.27802906916" lon="12.23028929071">
        <ele>595.2</ele>
        <time>2020-01-02T17:22:13Z</time>
      </trkpt>
      <trkpt lat="61.278174578944" lon="12.230234305446">
        <ele>596.2</ele>
        <time>2020-01-02T17:22:18Z</time>
      </trkpt>
      <trkpt lat="61.278515638455" lon="12.229646063704">
        <ele>596.6</ele>
        <time>2020-01-02T17:22:32Z</time>
      </trkpt>
      <trkpt lat="61.278774387708" lon="12.228845256978">
        <ele>596.4</ele>
        <time>2020-01-02T17:22:44Z</time>
      </trkpt>
      <trkpt lat="61.278910593583" lon="12.228517273231">
        <ele>596.2</ele>
        <time>2020-01-02T17:22:49Z</time>
      </trkpt>
      <trkpt lat="61.279214437458" lon="12.227950153877">
        <ele>597.4</ele>
        <time>2020-01-02T17:23:02Z</time>
      </trkpt>
      <trkpt lat="61.279470169227" lon="12.227596437697">
        <ele>598.4</ele>
        <time>2020-01-02T17:23:12Z</time>
      </trkpt>
      <trkpt lat="61.279659851624" lon="12.227351937674">
        <ele>599.4</ele>
        <time>2020-01-02T17:23:20Z</time>
      </trkpt>
      <trkpt lat="61.279894796281" lon="12.22700777686">
        <ele>599.4</ele>
        <time>2020-01-02T17:23:27Z</time>
      </trkpt>
      <trkpt lat="61.279966629164" lon="12.226864194913">
        <ele>599.2</ele>
        <time>2020-01-02T17:23:29Z</time>
      </trkpt>
      <trkpt lat="61.280052711277" lon="12.226742741182">
        <ele>599</ele>
        <time>2020-01-02T17:23:31Z</time>
      </trkpt>
      <trkpt lat="61.280139212485" lon="12.226693371791">
        <ele>599</ele>
        <time>2020-01-02T17:23:33Z</time>
      </trkpt>
      <trkpt lat="61.280218505259" lon="12.226697730379">
        <ele>599</ele>
        <time>2020-01-02T17:23:35Z</time>
      </trkpt>
      <trkpt lat="61.28042545437" lon="12.227131745161">
        <ele>600.6</ele>
        <time>2020-01-02T17:23:45Z</time>
      </trkpt>
      <trkpt lat="61.280465519852" lon="12.227231908866">
        <ele>601.8</ele>
        <time>2020-01-02T17:23:48Z</time>
      </trkpt>
      <trkpt lat="61.280658638828" lon="12.227627953641">
        <ele>603.2</ele>
        <time>2020-01-02T17:24:00Z</time>
      </trkpt>
      <trkpt lat="61.280854942926" lon="12.22782836487">
        <ele>604.6</ele>
        <time>2020-01-02T17:24:09Z</time>
      </trkpt>
      <trkpt lat="61.281143950838" lon="12.228041348949">
        <ele>605.8</ele>
        <time>2020-01-02T17:24:19Z</time>
      </trkpt>
      <trkpt lat="61.281491967326" lon="12.228685078869">
        <ele>606.4</ele>
        <time>2020-01-02T17:24:33Z</time>
      </trkpt>
      <trkpt lat="61.28155114354" lon="12.228769149326">
        <ele>606.8</ele>
        <time>2020-01-02T17:24:35Z</time>
      </trkpt>
      <trkpt lat="61.281886335721" lon="12.228984480337">
        <ele>606.6</ele>
        <time>2020-01-02T17:24:44Z</time>
      </trkpt>
      <trkpt lat="61.282122286206" lon="12.228864619167">
        <ele>606.2</ele>
        <time>2020-01-02T17:24:50Z</time>
      </trkpt>
      <trkpt lat="61.282541381206" lon="12.228390538903">
        <ele>606.4</ele>
        <time>2020-01-02T17:25:02Z</time>
      </trkpt>
      <trkpt lat="61.282930469004" lon="12.227838590788">
        <ele>606.4</ele>
        <time>2020-01-02T17:25:14Z</time>
      </trkpt>
      <trkpt lat="61.282983945526" lon="12.227711185908">
        <ele>606.8</ele>
        <time>2020-01-02T17:25:16Z</time>
      </trkpt>
      <trkpt lat="61.283169353154" lon="12.227226292993">
        <ele>607.2</ele>
        <time>2020-01-02T17:25:23Z</time>
      </trkpt>
      <trkpt lat="61.2835745342" lon="12.226726564115">
        <ele>607.8</ele>
        <time>2020-01-02T17:25:35Z</time>
      </trkpt>
      <trkpt lat="61.283701268528" lon="12.226543754876">
        <ele>607.8</ele>
        <time>2020-01-02T17:25:39Z</time>
      </trkpt>
      <trkpt lat="61.283764551873" lon="12.226448955587">
        <ele>607.8</ele>
        <time>2020-01-02T17:25:41Z</time>
      </trkpt>
      <trkpt lat="61.284075185087" lon="12.225756862104">
        <ele>608</ele>
        <time>2020-01-02T17:25:53Z</time>
      </trkpt>
      <trkpt lat="61.284354386176" lon="12.224962677079">
        <ele>608.6</ele>
        <time>2020-01-02T17:26:06Z</time>
      </trkpt>
      <trkpt lat="61.284372323442" lon="12.224885312142">
        <ele>608.4</ele>
        <time>2020-01-02T17:26:07Z</time>
      </trkpt>
      <trkpt lat="61.284405683404" lon="12.224753381036">
        <ele>608.4</ele>
        <time>2020-01-02T17:26:09Z</time>
      </trkpt>
      <trkpt lat="61.284443569592" lon="12.224603428845">
        <ele>608.4</ele>
        <time>2020-01-02T17:26:11Z</time>
      </trkpt>
      <trkpt lat="61.284461758315" lon="12.224488261539">
        <ele>608.6</ele>
        <time>2020-01-02T17:26:13Z</time>
      </trkpt>
      <trkpt lat="61.284585139883" lon="12.223579663579">
        <ele>608.8</ele>
        <time>2020-01-02T17:26:26Z</time>
      </trkpt>
      <trkpt lat="61.28452336528" lon="12.222886648087">
        <ele>609</ele>
        <time>2020-01-02T17:26:35Z</time>
      </trkpt>
      <trkpt lat="61.284427057249" lon="12.221961453965">
        <ele>609.6</ele>
        <time>2020-01-02T17:26:47Z</time>
      </trkpt>
      <trkpt lat="61.284362600438" lon="12.221029051409">
        <ele>608</ele>
        <time>2020-01-02T17:26:58Z</time>
      </trkpt>
      <trkpt lat="61.284375508564" lon="12.220776001848">
        <ele>607.6</ele>
        <time>2020-01-02T17:27:01Z</time>
      </trkpt>
      <trkpt lat="61.284501907616" lon="12.220236375126">
        <ele>607</ele>
        <time>2020-01-02T17:27:08Z</time>
      </trkpt>
      <trkpt lat="61.284561335287" lon="12.220104276382">
        <ele>607</ele>
        <time>2020-01-02T17:27:10Z</time>
      </trkpt>
      <trkpt lat="61.284597880371" lon="12.220053398249">
        <ele>607</ele>
        <time>2020-01-02T17:27:11Z</time>
      </trkpt>
      <trkpt lat="61.284635347464" lon="12.220006962523">
        <ele>607</ele>
        <time>2020-01-02T17:27:12Z</time>
      </trkpt>
      <trkpt lat="61.285047736944" lon="12.219639416208">
        <ele>607.4</ele>
        <time>2020-01-02T17:27:24Z</time>
      </trkpt>
      <trkpt lat="61.285440764235" lon="12.219407824311">
        <ele>608</ele>
        <time>2020-01-02T17:27:37Z</time>
      </trkpt>
      <trkpt lat="61.285512597118" lon="12.21936432225">
        <ele>609.2</ele>
        <time>2020-01-02T17:27:40Z</time>
      </trkpt>
      <trkpt lat="61.285899840898" lon="12.21916315665">
        <ele>609.6</ele>
        <time>2020-01-02T17:27:54Z</time>
      </trkpt>
      <trkpt lat="61.2859130843" lon="12.219143543004">
        <ele>609.8</ele>
        <time>2020-01-02T17:28:57Z</time>
      </trkpt>
      <trkpt lat="61.285799174279" lon="12.219188805264">
        <ele>610</ele>
        <time>2020-01-02T17:29:02Z</time>
      </trkpt>
      <trkpt lat="61.285768580344" lon="12.219204395598">
        <ele>610.2</ele>
        <time>2020-01-02T17:29:03Z</time>
      </trkpt>
      <trkpt lat="61.285324004368" lon="12.219421402989">
        <ele>610.8</ele>
        <time>2020-01-02T17:29:14Z</time>
      </trkpt>
      <trkpt lat="61.285175141824" lon="12.21950849093">
        <ele>611.4</ele>
        <time>2020-01-02T17:29:17Z</time>
      </trkpt>
      <trkpt lat="61.284976071699" lon="12.219634554706">
        <ele>610.2</ele>
        <time>2020-01-02T17:29:21Z</time>
      </trkpt>
      <trkpt lat="61.284685052131" lon="12.21987477996">
        <ele>609.2</ele>
        <time>2020-01-02T17:29:28Z</time>
      </trkpt>
      <trkpt lat="61.28445295732" lon="12.220193375979">
        <ele>609</ele>
        <time>2020-01-02T17:29:34Z</time>
      </trkpt>
      <trkpt lat="61.284351201054" lon="12.220482970624">
        <ele>608.8</ele>
        <time>2020-01-02T17:29:38Z</time>
      </trkpt>
      <trkpt lat="61.284319098377" lon="12.220741636058">
        <ele>608.8</ele>
        <time>2020-01-02T17:29:41Z</time>
      </trkpt>
      <trkpt lat="61.284312476676" lon="12.220907597678">
        <ele>608.6</ele>
        <time>2020-01-02T17:29:43Z</time>
      </trkpt>
      <trkpt lat="61.2843121414" lon="12.221358543898">
        <ele>608.6</ele>
        <time>2020-01-02T17:29:48Z</time>
      </trkpt>
      <trkpt lat="61.284329994847" lon="12.22169532864">
        <ele>608.4</ele>
        <time>2020-01-02T17:29:52Z</time>
      </trkpt>
      <trkpt lat="61.284378609867" lon="12.222131019802">
        <ele>610.2</ele>
        <time>2020-01-02T17:29:58Z</time>
      </trkpt>
      <trkpt lat="61.284443150497" lon="12.222734265145">
        <ele>609</ele>
        <time>2020-01-02T17:30:06Z</time>
      </trkpt>
      <trkpt lat="61.284509451326" lon="12.223673624678">
        <ele>609.4</ele>
        <time>2020-01-02T17:30:18Z</time>
      </trkpt>
      <trkpt lat="61.284492184612" lon="12.22415122534">
        <ele>609.6</ele>
        <time>2020-01-02T17:30:24Z</time>
      </trkpt>
      <trkpt lat="61.284297556894" lon="12.225037359808">
        <ele>609.8</ele>
        <time>2020-01-02T17:30:36Z</time>
      </trkpt>
      <trkpt lat="61.284173253317" lon="12.225453688781">
        <ele>610</ele>
        <time>2020-01-02T17:30:42Z</time>
      </trkpt>
      <trkpt lat="61.283845437208" lon="12.226185596289">
        <ele>609</ele>
        <time>2020-01-02T17:30:54Z</time>
      </trkpt>
      <trkpt lat="61.283491721028" lon="12.2267781128">
        <ele>608.4</ele>
        <time>2020-01-02T17:31:05Z</time>
      </trkpt>
      <trkpt lat="61.28326272752" lon="12.227044154306">
        <ele>608</ele>
        <time>2020-01-02T17:31:11Z</time>
      </trkpt>
      <trkpt lat="61.283060975187" lon="12.227306423957">
        <ele>607.8</ele>
        <time>2020-01-02T17:31:17Z</time>
      </trkpt>
      <trkpt lat="61.282735422191" lon="12.227983597658">
        <ele>609</ele>
        <time>2020-01-02T17:31:29Z</time>
      </trkpt>
      <trkpt lat="61.282705163532" lon="12.228033805239">
        <ele>609</ele>
        <time>2020-01-02T17:31:30Z</time>
      </trkpt>
      <trkpt lat="61.282615141926" lon="12.228187194009">
        <ele>609</ele>
        <time>2020-01-02T17:31:33Z</time>
      </trkpt>
      <trkpt lat="61.282303335246" lon="12.228566139708">
        <ele>608</ele>
        <time>2020-01-02T17:31:42Z</time>
      </trkpt>
      <trkpt lat="61.281992115299" lon="12.22888364608">
        <ele>607.8</ele>
        <time>2020-01-02T17:31:51Z</time>
      </trkpt>
      <trkpt lat="61.281566566236" lon="12.228631183252">
        <ele>607.8</ele>
        <time>2020-01-02T17:32:03Z</time>
      </trkpt>
      <trkpt lat="61.281183597225" lon="12.228023579321">
        <ele>607.6</ele>
        <time>2020-01-02T17:32:16Z</time>
      </trkpt>
      <trkpt lat="61.280772548849" lon="12.227628708012">
        <ele>607.4</ele>
        <time>2020-01-02T17:32:27Z</time>
      </trkpt>
      <trkpt lat="61.280692166428" lon="12.227560479346">
        <ele>607</ele>
        <time>2020-01-02T17:32:29Z</time>
      </trkpt>
      <trkpt lat="61.28059728332" lon="12.227451933741">
        <ele>606.6</ele>
        <time>2020-01-02T17:32:31Z</time>
      </trkpt>
      <trkpt lat="61.280553362164" lon="12.227375909908">
        <ele>605.2</ele>
        <time>2020-01-02T17:32:32Z</time>
      </trkpt>
      <trkpt lat="61.280515056881" lon="12.227285553026">
        <ele>603.6</ele>
        <time>2020-01-02T17:32:33Z</time>
      </trkpt>
      <trkpt lat="61.280478595616" lon="12.227186478968">
        <ele>601.6</ele>
        <time>2020-01-02T17:32:34Z</time>
      </trkpt>
      <trkpt lat="61.280426795474" lon="12.227069551463">
        <ele>600</ele>
        <time>2020-01-02T17:32:35Z</time>
      </trkpt>
      <trkpt lat="61.28036845745" lon="12.226969387758">
        <ele>598.6</ele>
        <time>2020-01-02T17:32:36Z</time>
      </trkpt>
      <trkpt lat="61.280290002866" lon="12.226844916543">
        <ele>597.6</ele>
        <time>2020-01-02T17:32:37Z</time>
      </trkpt>
      <trkpt lat="61.280211129187" lon="12.226764869398">
        <ele>597.2</ele>
        <time>2020-01-02T17:32:38Z</time>
      </trkpt>
      <trkpt lat="61.280073079294" lon="12.226717344025">
        <ele>596.4</ele>
        <time>2020-01-02T17:32:40Z</time>
      </trkpt>
      <trkpt lat="61.280022704075" lon="12.226751793634">
        <ele>596.2</ele>
        <time>2020-01-02T17:32:41Z</time>
      </trkpt>
      <trkpt lat="61.279975094883" lon="12.226800492473">
        <ele>595.8</ele>
        <time>2020-01-02T17:32:42Z</time>
      </trkpt>
      <trkpt lat="61.2798781163" lon="12.226962682238">
        <ele>595.4</ele>
        <time>2020-01-02T17:32:44Z</time>
      </trkpt>
      <trkpt lat="61.27979262092" lon="12.227088746014">
        <ele>595.8</ele>
        <time>2020-01-02T17:32:46Z</time>
      </trkpt>
      <trkpt lat="61.279727577376" lon="12.227178013249">
        <ele>598.2</ele>
        <time>2020-01-02T17:32:48Z</time>
      </trkpt>
      <trkpt lat="61.279701425848" lon="12.227215731799">
        <ele>599.2</ele>
        <time>2020-01-02T17:32:49Z</time>
      </trkpt>
      <trkpt lat="61.279621797798" lon="12.227350680389">
        <ele>600.6</ele>
        <time>2020-01-02T17:32:52Z</time>
      </trkpt>
      <trkpt lat="61.279397498154" lon="12.227564418839">
        <ele>601</ele>
        <time>2020-01-02T17:32:58Z</time>
      </trkpt>
      <trkpt lat="61.279041770318" lon="12.22817621372">
        <ele>600</ele>
        <time>2020-01-02T17:33:07Z</time>
      </trkpt>
      <trkpt lat="61.278917885836" lon="12.228462623243">
        <ele>600.2</ele>
        <time>2020-01-02T17:33:10Z</time>
      </trkpt>
      <trkpt lat="61.27885384812" lon="12.228651048355">
        <ele>599.6</ele>
        <time>2020-01-02T17:33:12Z</time>
      </trkpt>
      <trkpt lat="61.278787044377" lon="12.228831929757">
        <ele>598.4</ele>
        <time>2020-01-02T17:33:14Z</time>
      </trkpt>
      <trkpt lat="61.278514213532" lon="12.229586552214">
        <ele>598</ele>
        <time>2020-01-02T17:33:24Z</time>
      </trkpt>
      <trkpt lat="61.278400722606" lon="12.229977735487">
        <ele>598.4</ele>
        <time>2020-01-02T17:33:29Z</time>
      </trkpt>
      <trkpt lat="61.278344396238" lon="12.230106313833">
        <ele>598</ele>
        <time>2020-01-02T17:33:31Z</time>
      </trkpt>
      <trkpt lat="61.27821933829" lon="12.230221564958">
        <ele>597.8</ele>
        <time>2020-01-02T17:33:34Z</time>
      </trkpt>
      <trkpt lat="61.278080869302" lon="12.230274035652">
        <ele>598</ele>
        <time>2020-01-02T17:33:37Z</time>
      </trkpt>
      <trkpt lat="61.277985567099" lon="12.230324662328">
        <ele>598</ele>
        <time>2020-01-02T17:33:39Z</time>
      </trkpt>
      <trkpt lat="61.27789579695" lon="12.23034293487">
        <ele>597.8</ele>
        <time>2020-01-02T17:33:41Z</time>
      </trkpt>
      <trkpt lat="61.277794208322" lon="12.230305132501">
        <ele>597.6</ele>
        <time>2020-01-02T17:33:43Z</time>
      </trkpt>
      <trkpt lat="61.277740899438" lon="12.230274119471">
        <ele>597.6</ele>
        <time>2020-01-02T17:33:44Z</time>
      </trkpt>
      <trkpt lat="61.277640568095" lon="12.230197592724">
        <ele>597.6</ele>
        <time>2020-01-02T17:33:46Z</time>
      </trkpt>
      <trkpt lat="61.277589522324" lon="12.230157191966">
        <ele>596.8</ele>
        <time>2020-01-02T17:33:47Z</time>
      </trkpt>
      <trkpt lat="61.277544679159" lon="12.230095417363">
        <ele>595.6</ele>
        <time>2020-01-02T17:33:48Z</time>
      </trkpt>
      <trkpt lat="61.277499165442" lon="12.230037246977">
        <ele>594</ele>
        <time>2020-01-02T17:33:49Z</time>
      </trkpt>
      <trkpt lat="61.277458513227" lon="12.229976729659">
        <ele>592.8</ele>
        <time>2020-01-02T17:33:50Z</time>
      </trkpt>
      <trkpt lat="61.277421046134" lon="12.229913362495">
        <ele>591.8</ele>
        <time>2020-01-02T17:33:51Z</time>
      </trkpt>
      <trkpt lat="61.277381399747" lon="12.229848318951">
        <ele>590.8</ele>
        <time>2020-01-02T17:33:52Z</time>
      </trkpt>
      <trkpt lat="61.277295066177" lon="12.229737929328">
        <ele>589.8</ele>
        <time>2020-01-02T17:33:54Z</time>
      </trkpt>
      <trkpt lat="61.2771959083" lon="12.229653355957">
        <ele>588.6</ele>
        <time>2020-01-02T17:33:56Z</time>
      </trkpt>
      <trkpt lat="61.277084512849" lon="12.229589066784">
        <ele>588</ele>
        <time>2020-01-02T17:33:58Z</time>
      </trkpt>
      <trkpt lat="61.276911845709" lon="12.22951396496">
        <ele>587.8</ele>
        <time>2020-01-02T17:34:01Z</time>
      </trkpt>
      <trkpt lat="61.276799695887" lon="12.229340040535">
        <ele>587.6</ele>
        <time>2020-01-02T17:34:03Z</time>
      </trkpt>
      <trkpt lat="61.276758876034" lon="12.229226717247">
        <ele>587.4</ele>
        <time>2020-01-02T17:34:04Z</time>
      </trkpt>
      <trkpt lat="61.276608420929" lon="12.228760096874">
        <ele>588.8</ele>
        <time>2020-01-02T17:34:09Z</time>
      </trkpt>
      <trkpt lat="61.276538851159" lon="12.228596733643">
        <ele>590</ele>
        <time>2020-01-02T17:34:12Z</time>
      </trkpt>
      <trkpt lat="61.276424857319" lon="12.228412248024">
        <ele>591</ele>
        <time>2020-01-02T17:34:16Z</time>
      </trkpt>
      <trkpt lat="61.276241042252" lon="12.22812424594">
        <ele>591.6</ele>
        <time>2020-01-02T17:34:21Z</time>
      </trkpt>
      <trkpt lat="61.275955722376" lon="12.227714957763">
        <ele>590</ele>
        <time>2020-01-02T17:34:29Z</time>
      </trkpt>
      <trkpt lat="61.275920686034" lon="12.227676484842">
        <ele>590</ele>
        <time>2020-01-02T17:34:30Z</time>
      </trkpt>
      <trkpt lat="61.275811050782" lon="12.22753667475">
        <ele>589.8</ele>
        <time>2020-01-02T17:34:33Z</time>
      </trkpt>
      <trkpt lat="61.275518857748" lon="12.22717960581">
        <ele>589.4</ele>
        <time>2020-01-02T17:34:41Z</time>
      </trkpt>
      <trkpt lat="61.275302269452" lon="12.226964777713">
        <ele>589</ele>
        <time>2020-01-02T17:34:47Z</time>
      </trkpt>
      <trkpt lat="61.274824501152" lon="12.226707872478">
        <ele>588.8</ele>
        <time>2020-01-02T17:35:00Z</time>
      </trkpt>
      <trkpt lat="61.274712099873" lon="12.226668477548">
        <ele>588.8</ele>
        <time>2020-01-02T17:35:02Z</time>
      </trkpt>
      <trkpt lat="61.274611181797" lon="12.226591866982">
        <ele>588.4</ele>
        <time>2020-01-02T17:35:04Z</time>
      </trkpt>
      <trkpt lat="61.274505234581" lon="12.226449709958">
        <ele>587.8</ele>
        <time>2020-01-02T17:35:07Z</time>
      </trkpt>
      <trkpt lat="61.274110866186" lon="12.225896588377">
        <ele>587.8</ele>
        <time>2020-01-02T17:35:22Z</time>
      </trkpt>
      <trkpt lat="61.273975079406" lon="12.225767423298">
        <ele>586</ele>
        <time>2020-01-02T17:35:27Z</time>
      </trkpt>
      <trkpt lat="61.273545423212" lon="12.225888960848">
        <ele>587.2</ele>
        <time>2020-01-02T17:35:44Z</time>
      </trkpt>
      <trkpt lat="61.273263623734" lon="12.226619778709">
        <ele>586.2</ele>
        <time>2020-01-02T17:35:57Z</time>
      </trkpt>
      <trkpt lat="61.272884678035" lon="12.227218497826">
        <ele>587.4</ele>
        <time>2020-01-02T17:36:11Z</time>
      </trkpt>
      <trkpt lat="61.272489974364" lon="12.227671204245">
        <ele>588.4</ele>
        <time>2020-01-02T17:36:26Z</time>
      </trkpt>
      <trkpt lat="61.272400371853" lon="12.227760806756">
        <ele>589.4</ele>
        <time>2020-01-02T17:36:30Z</time>
      </trkpt>
      <trkpt lat="61.27195638261" lon="12.227887373446">
        <ele>590</ele>
        <time>2020-01-02T17:36:46Z</time>
      </trkpt>
      <trkpt lat="61.271653293106" lon="12.227821575531">
        <ele>590.6</ele>
        <time>2020-01-02T17:36:58Z</time>
      </trkpt>
      <trkpt lat="61.271535862687" lon="12.227725686595">
        <ele>591.8</ele>
        <time>2020-01-02T17:37:04Z</time>
      </trkpt>
      <trkpt lat="61.271342659892" lon="12.227578248974">
        <ele>593</ele>
        <time>2020-01-02T17:37:12Z</time>
      </trkpt>
      <trkpt lat="61.271100171525" lon="12.227406000929">
        <ele>594.2</ele>
        <time>2020-01-02T17:37:22Z</time>
      </trkpt>
      <trkpt lat="61.270922475245" lon="12.227310698726">
        <ele>595.4</ele>
        <time>2020-01-02T17:37:29Z</time>
      </trkpt>
      <trkpt lat="61.270656936653" lon="12.227249343218">
        <ele>596.6</ele>
        <time>2020-01-02T17:37:42Z</time>
      </trkpt>
      <trkpt lat="61.270551911446" lon="12.227357218271">
        <ele>597.8</ele>
        <time>2020-01-02T17:37:48Z</time>
      </trkpt>
      <trkpt lat="61.270248570485" lon="12.228077474938">
        <ele>597.6</ele>
        <time>2020-01-02T17:38:04Z</time>
      </trkpt>
      <trkpt lat="61.270181263828" lon="12.228910551979">
        <ele>597.4</ele>
        <time>2020-01-02T17:38:14Z</time>
      </trkpt>
      <trkpt lat="61.270152346273" lon="12.229457051859">
        <ele>597.6</ele>
        <time>2020-01-02T17:38:19Z</time>
      </trkpt>
      <trkpt lat="61.270158632698" lon="12.229825017269">
        <ele>596.4</ele>
        <time>2020-01-02T17:38:22Z</time>
      </trkpt>
      <trkpt lat="61.270161147268" lon="12.229953511796">
        <ele>595.2</ele>
        <time>2020-01-02T17:38:23Z</time>
      </trkpt>
      <trkpt lat="61.270164835304" lon="12.2300889633">
        <ele>594</ele>
        <time>2020-01-02T17:38:24Z</time>
      </trkpt>
      <trkpt lat="61.270166092589" lon="12.230222151691">
        <ele>592.8</ele>
        <time>2020-01-02T17:38:25Z</time>
      </trkpt>
      <trkpt lat="61.270165673494" lon="12.230504956997">
        <ele>591.4</ele>
        <time>2020-01-02T17:38:27Z</time>
      </trkpt>
      <trkpt lat="61.27017019972" lon="12.230785583009">
        <ele>590.2</ele>
        <time>2020-01-02T17:38:29Z</time>
      </trkpt>
      <trkpt lat="61.270191405927" lon="12.231226722406">
        <ele>589</ele>
        <time>2020-01-02T17:38:32Z</time>
      </trkpt>
      <trkpt lat="61.270221664586" lon="12.231674399685">
        <ele>587.6</ele>
        <time>2020-01-02T17:38:35Z</time>
      </trkpt>
      <trkpt lat="61.270235997635" lon="12.231988637116">
        <ele>586.4</ele>
        <time>2020-01-02T17:38:37Z</time>
      </trkpt>
      <trkpt lat="61.27021881474" lon="12.232315866492">
        <ele>584.8</ele>
        <time>2020-01-02T17:38:39Z</time>
      </trkpt>
      <trkpt lat="61.270165254399" lon="12.232631361208">
        <ele>583.4</ele>
        <time>2020-01-02T17:38:41Z</time>
      </trkpt>
      <trkpt lat="61.270099205027" lon="12.233100663789">
        <ele>582.2</ele>
        <time>2020-01-02T17:38:44Z</time>
      </trkpt>
      <trkpt lat="61.270010021611" lon="12.233913205175">
        <ele>581.2</ele>
        <time>2020-01-02T17:38:49Z</time>
      </trkpt>
      <trkpt lat="61.269983618626" lon="12.234233561393">
        <ele>580</ele>
        <time>2020-01-02T17:38:51Z</time>
      </trkpt>
      <trkpt lat="61.269949085198" lon="12.234560623131">
        <ele>578.8</ele>
        <time>2020-01-02T17:38:53Z</time>
      </trkpt>
      <trkpt lat="61.269918407444" lon="12.234880141159">
        <ele>577</ele>
        <time>2020-01-02T17:38:55Z</time>
      </trkpt>
      <trkpt lat="61.269889573708" lon="12.235209046915">
        <ele>575.8</ele>
        <time>2020-01-02T17:38:57Z</time>
      </trkpt>
      <trkpt lat="61.269854788823" lon="12.235735262597">
        <ele>574.2</ele>
        <time>2020-01-02T17:39:00Z</time>
      </trkpt>
      <trkpt lat="61.269807514907" lon="12.236098617962">
        <ele>572.6</ele>
        <time>2020-01-02T17:39:02Z</time>
      </trkpt>
      <trkpt lat="61.269746494675" lon="12.236444203699">
        <ele>571</ele>
        <time>2020-01-02T17:39:04Z</time>
      </trkpt>
      <trkpt lat="61.26967650581" lon="12.236775037292">
        <ele>569</ele>
        <time>2020-01-02T17:39:06Z</time>
      </trkpt>
      <trkpt lat="61.269632584654" lon="12.236925911492">
        <ele>568.2</ele>
        <time>2020-01-02T17:39:07Z</time>
      </trkpt>
      <trkpt lat="61.269578521399" lon="12.237079635538">
        <ele>567.4</ele>
        <time>2020-01-02T17:39:08Z</time>
      </trkpt>
      <trkpt lat="61.26947785478" lon="12.237361267378">
        <ele>566</ele>
        <time>2020-01-02T17:39:10Z</time>
      </trkpt>
      <trkpt lat="61.269294374989" lon="12.238180179008">
        <ele>564.6</ele>
        <time>2020-01-02T17:39:15Z</time>
      </trkpt>
      <trkpt lat="61.269188260135" lon="12.238496176638">
        <ele>563</ele>
        <time>2020-01-02T17:39:17Z</time>
      </trkpt>
      <trkpt lat="61.269057753952" lon="12.238741179575">
        <ele>561.8</ele>
        <time>2020-01-02T17:39:19Z</time>
      </trkpt>
      <trkpt lat="61.268990112019" lon="12.238829021887">
        <ele>561.6</ele>
        <time>2020-01-02T17:39:20Z</time>
      </trkpt>
      <trkpt lat="61.268763381624" lon="12.239033204971">
        <ele>563</ele>
        <time>2020-01-02T17:39:24Z</time>
      </trkpt>
      <trkpt lat="61.268714431328" lon="12.239061368155">
        <ele>564.2</ele>
        <time>2020-01-02T17:39:25Z</time>
      </trkpt>
      <trkpt lat="61.268667576507" lon="12.239089112244">
        <ele>565.4</ele>
        <time>2020-01-02T17:39:26Z</time>
      </trkpt>
      <trkpt lat="61.268594067244" lon="12.239138481635">
        <ele>567</ele>
        <time>2020-01-02T17:39:28Z</time>
      </trkpt>
      <trkpt lat="61.268469260753" lon="12.23921769059">
        <ele>567.6</ele>
        <time>2020-01-02T17:39:31Z</time>
      </trkpt>
      <trkpt lat="61.268350321592" lon="12.239370995541">
        <ele>568</ele>
        <time>2020-01-02T17:39:35Z</time>
      </trkpt>
      <trkpt lat="61.268267089325" lon="12.239553637142">
        <ele>568.6</ele>
        <time>2020-01-02T17:39:38Z</time>
      </trkpt>
      <trkpt lat="61.268198860659" lon="12.239646760051">
        <ele>569</ele>
        <time>2020-01-02T17:39:40Z</time>
      </trkpt>
      <trkpt lat="61.26800515495" lon="12.23984633309">
        <ele>567.8</ele>
        <time>2020-01-02T17:39:45Z</time>
      </trkpt>
      <trkpt lat="61.267967268762" lon="12.239887320581">
        <ele>567.8</ele>
        <time>2020-01-02T17:39:46Z</time>
      </trkpt>
      <trkpt lat="61.267853023465" lon="12.240074823684">
        <ele>566.8</ele>
        <time>2020-01-02T17:39:49Z</time>
      </trkpt>
      <trkpt lat="61.267831481982" lon="12.240139196676">
        <ele>566.8</ele>
        <time>2020-01-02T17:39:50Z</time>
      </trkpt>
      <trkpt lat="61.267711201717" lon="12.240767671538">
        <ele>567.2</ele>
        <time>2020-01-02T17:39:56Z</time>
      </trkpt>
      <trkpt lat="61.267663508706" lon="12.241123315555">
        <ele>565.4</ele>
        <time>2020-01-02T17:39:59Z</time>
      </trkpt>
      <trkpt lat="61.267650852037" lon="12.241256671584">
        <ele>563.6</ele>
        <time>2020-01-02T17:40:00Z</time>
      </trkpt>
      <trkpt lat="61.267644146517" lon="12.241389105604">
        <ele>562</ele>
        <time>2020-01-02T17:40:01Z</time>
      </trkpt>
      <trkpt lat="61.267655378263" lon="12.241665792123">
        <ele>560.4</ele>
        <time>2020-01-02T17:40:03Z</time>
      </trkpt>
      <trkpt lat="61.267685888379" lon="12.241949435619">
        <ele>559.2</ele>
        <time>2020-01-02T17:40:05Z</time>
      </trkpt>
      <trkpt lat="61.267724109843" lon="12.242254285322">
        <ele>558.2</ele>
        <time>2020-01-02T17:40:07Z</time>
      </trkpt>
      <trkpt lat="61.267765935524" lon="12.242590483331">
        <ele>556.6</ele>
        <time>2020-01-02T17:40:09Z</time>
      </trkpt>
      <trkpt lat="61.267790913586" lon="12.242949396289">
        <ele>555.4</ele>
        <time>2020-01-02T17:40:11Z</time>
      </trkpt>
      <trkpt lat="61.267800468952" lon="12.243171097544">
        <ele>554.8</ele>
        <time>2020-01-02T17:40:12Z</time>
      </trkpt>
      <trkpt lat="61.267803318798" lon="12.243397073568">
        <ele>553.8</ele>
        <time>2020-01-02T17:40:13Z</time>
      </trkpt>
      <trkpt lat="61.26778890193" lon="12.243598239168">
        <ele>552.4</ele>
        <time>2020-01-02T17:40:14Z</time>
      </trkpt>
      <trkpt lat="61.267745902783" lon="12.243768894652">
        <ele>550.8</ele>
        <time>2020-01-02T17:40:15Z</time>
      </trkpt>
      <trkpt lat="61.267681194515" lon="12.243896886265">
        <ele>549.2</ele>
        <time>2020-01-02T17:40:16Z</time>
      </trkpt>
      <trkpt lat="61.267538199301" lon="12.244050861768">
        <ele>548.2</ele>
        <time>2020-01-02T17:40:18Z</time>
      </trkpt>
      <trkpt lat="61.267220441472" lon="12.244367949045">
        <ele>549.6</ele>
        <time>2020-01-02T17:40:24Z</time>
      </trkpt>
      <trkpt lat="61.267131677151" lon="12.244472806614">
        <ele>551.2</ele>
        <time>2020-01-02T17:40:26Z</time>
      </trkpt>
      <trkpt lat="61.267051881463" lon="12.244565929523">
        <ele>552.2</ele>
        <time>2020-01-02T17:40:28Z</time>
      </trkpt>
      <trkpt lat="61.266854739175" lon="12.244822499482">
        <ele>553</ele>
        <time>2020-01-02T17:40:33Z</time>
      </trkpt>
      <trkpt lat="61.266788270708" lon="12.244921405902">
        <ele>553.4</ele>
        <time>2020-01-02T17:40:35Z</time>
      </trkpt>
      <trkpt lat="61.266401529842" lon="12.245489363446">
        <ele>553.4</ele>
        <time>2020-01-02T17:40:47Z</time>
      </trkpt>
      <trkpt lat="61.266284686156" lon="12.245682230965">
        <ele>551.2</ele>
        <time>2020-01-02T17:40:50Z</time>
      </trkpt>
      <trkpt lat="61.266243698665" lon="12.24574970526">
        <ele>549.6</ele>
        <time>2020-01-02T17:40:51Z</time>
      </trkpt>
      <trkpt lat="61.26616365152" lon="12.245873422104">
        <ele>548.4</ele>
        <time>2020-01-02T17:40:53Z</time>
      </trkpt>
      <trkpt lat="61.26606055415" lon="12.245957408742">
        <ele>547.8</ele>
        <time>2020-01-02T17:40:55Z</time>
      </trkpt>
      <trkpt lat="61.265951505631" lon="12.245978447311">
        <ele>547.8</ele>
        <time>2020-01-02T17:40:57Z</time>
      </trkpt>
      <trkpt lat="61.265807085494" lon="12.245996468396">
        <ele>549.2</ele>
        <time>2020-01-02T17:41:00Z</time>
      </trkpt>
      <trkpt lat="61.265766014184" lon="12.246005604667">
        <ele>549.8</ele>
        <time>2020-01-02T17:41:01Z</time>
      </trkpt>
      <trkpt lat="61.265570632095" lon="12.246020943544">
        <ele>551</ele>
        <time>2020-01-02T17:41:06Z</time>
      </trkpt>
      <trkpt lat="61.26546711563" lon="12.246041814475">
        <ele>552</ele>
        <time>2020-01-02T17:41:09Z</time>
      </trkpt>
      <trkpt lat="61.265249102411" lon="12.246073330419">
        <ele>553</ele>
        <time>2020-01-02T17:41:15Z</time>
      </trkpt>
      <trkpt lat="61.265123290092" lon="12.246092022056">
        <ele>553</ele>
        <time>2020-01-02T17:41:18Z</time>
      </trkpt>
      <trkpt lat="61.265038968178" lon="12.246129489149">
        <ele>553.2</ele>
        <time>2020-01-02T17:41:20Z</time>
      </trkpt>
      <trkpt lat="61.264580142972" lon="12.246231915967">
        <ele>553.8</ele>
        <time>2020-01-02T17:41:33Z</time>
      </trkpt>
      <trkpt lat="61.264449972065" lon="12.246324452143">
        <ele>554.2</ele>
        <time>2020-01-02T17:41:37Z</time>
      </trkpt>
      <trkpt lat="61.264133974435" lon="12.246710019543">
        <ele>554</ele>
        <time>2020-01-02T17:41:46Z</time>
      </trkpt>
      <trkpt lat="61.26388377472" lon="12.24681504475">
        <ele>553</ele>
        <time>2020-01-02T17:41:52Z</time>
      </trkpt>
      <trkpt lat="61.263439785477" lon="12.247031465408">
        <ele>553</ele>
        <time>2020-01-02T17:42:03Z</time>
      </trkpt>
      <trkpt lat="61.263314727529" lon="12.247202539987">
        <ele>553</ele>
        <time>2020-01-02T17:42:06Z</time>
      </trkpt>
      <trkpt lat="61.26319310616" lon="12.247518034703">
        <ele>553</ele>
        <time>2020-01-02T17:42:10Z</time>
      </trkpt>
      <trkpt lat="61.263116160318" lon="12.247955569883">
        <ele>552</ele>
        <time>2020-01-02T17:42:14Z</time>
      </trkpt>
      <trkpt lat="61.263049608032" lon="12.248170146523">
        <ele>551.8</ele>
        <time>2020-01-02T17:42:16Z</time>
      </trkpt>
      <trkpt lat="61.262952210354" lon="12.248319092886">
        <ele>551.4</ele>
        <time>2020-01-02T17:42:18Z</time>
      </trkpt>
      <trkpt lat="61.262858500712" lon="12.248421519704">
        <ele>551</ele>
        <time>2020-01-02T17:42:20Z</time>
      </trkpt>
      <trkpt lat="61.262730090004" lon="12.248578261234">
        <ele>550.4</ele>
        <time>2020-01-02T17:42:23Z</time>
      </trkpt>
      <trkpt lat="61.262660101139" lon="12.24872695614">
        <ele>550</ele>
        <time>2020-01-02T17:42:25Z</time>
      </trkpt>
      <trkpt lat="61.262589274084" lon="12.248888391534">
        <ele>549.8</ele>
        <time>2020-01-02T17:42:27Z</time>
      </trkpt>
      <trkpt lat="61.262309234805" lon="12.249265325577">
        <ele>548.4</ele>
        <time>2020-01-02T17:42:34Z</time>
      </trkpt>
      <trkpt lat="61.262168418885" lon="12.249466994091">
        <ele>547.8</ele>
        <time>2020-01-02T17:42:38Z</time>
      </trkpt>
      <trkpt lat="61.262109494128" lon="12.249651814986">
        <ele>547.4</ele>
        <time>2020-01-02T17:42:40Z</time>
      </trkpt>
      <trkpt lat="61.262090383396" lon="12.249854656966">
        <ele>546.8</ele>
        <time>2020-01-02T17:42:42Z</time>
      </trkpt>
      <trkpt lat="61.262090215758" lon="12.250095804229">
        <ele>546.4</ele>
        <time>2020-01-02T17:42:44Z</time>
      </trkpt>
      <trkpt lat="61.26208166622" lon="12.250225472222">
        <ele>546</ele>
        <time>2020-01-02T17:42:45Z</time>
      </trkpt>
      <trkpt lat="61.26203640396" lon="12.250467792951">
        <ele>545.2</ele>
        <time>2020-01-02T17:42:47Z</time>
      </trkpt>
      <trkpt lat="61.262005977663" lon="12.250567956656">
        <ele>544.6</ele>
        <time>2020-01-02T17:42:48Z</time>
      </trkpt>
      <trkpt lat="61.26196431962" lon="12.25066233685">
        <ele>543.6</ele>
        <time>2020-01-02T17:42:49Z</time>
      </trkpt>
      <trkpt lat="61.261918889722" lon="12.250745066203">
        <ele>542.6</ele>
        <time>2020-01-02T17:42:50Z</time>
      </trkpt>
      <trkpt lat="61.261873962738" lon="12.250807678996">
        <ele>542</ele>
        <time>2020-01-02T17:42:51Z</time>
      </trkpt>
      <trkpt lat="61.261692578422" lon="12.251017897048">
        <ele>542</ele>
        <time>2020-01-02T17:42:55Z</time>
      </trkpt>
      <trkpt lat="61.261533154684" lon="12.251360632939">
        <ele>542</ele>
        <time>2020-01-02T17:43:00Z</time>
      </trkpt>
      <trkpt lat="61.261424357622" lon="12.251686018297">
        <ele>541.2</ele>
        <time>2020-01-02T17:43:04Z</time>
      </trkpt>
      <trkpt lat="61.261376413154" lon="12.251885591336">
        <ele>540.8</ele>
        <time>2020-01-02T17:43:06Z</time>
      </trkpt>
      <trkpt lat="61.261343304649" lon="12.252472575793">
        <ele>540.2</ele>
        <time>2020-01-02T17:43:11Z</time>
      </trkpt>
      <trkpt lat="61.261404911614" lon="12.253014046533">
        <ele>539.4</ele>
        <time>2020-01-02T17:43:15Z</time>
      </trkpt>
      <trkpt lat="61.261427458925" lon="12.253142373422">
        <ele>538.6</ele>
        <time>2020-01-02T17:43:16Z</time>
      </trkpt>
      <trkpt lat="61.261447407847" lon="12.253277070555">
        <ele>537.6</ele>
        <time>2020-01-02T17:43:17Z</time>
      </trkpt>
      <trkpt lat="61.261467943502" lon="12.253411683869">
        <ele>536.2</ele>
        <time>2020-01-02T17:43:18Z</time>
      </trkpt>
      <trkpt lat="61.261514546866" lon="12.253678815022">
        <ele>534.4</ele>
        <time>2020-01-02T17:43:20Z</time>
      </trkpt>
      <trkpt lat="61.261557881289" lon="12.253959357215">
        <ele>532.6</ele>
        <time>2020-01-02T17:43:22Z</time>
      </trkpt>
      <trkpt lat="61.261584451912" lon="12.254253981">
        <ele>531.6</ele>
        <time>2020-01-02T17:43:24Z</time>
      </trkpt>
      <trkpt lat="61.261591073613" lon="12.254746417625">
        <ele>530</ele>
        <time>2020-01-02T17:43:27Z</time>
      </trkpt>
      <trkpt lat="61.261576070012" lon="12.255091835724">
        <ele>528.4</ele>
        <time>2020-01-02T17:43:29Z</time>
      </trkpt>
      <trkpt lat="61.261553522701" lon="12.255443791705">
        <ele>527.2</ele>
        <time>2020-01-02T17:43:31Z</time>
      </trkpt>
      <trkpt lat="61.261505242957" lon="12.25596807955">
        <ele>526</ele>
        <time>2020-01-02T17:43:34Z</time>
      </trkpt>
      <trkpt lat="61.261319080958" lon="12.25670820132">
        <ele>524.8</ele>
        <time>2020-01-02T17:43:39Z</time>
      </trkpt>
      <trkpt lat="61.261046669208" lon="12.257520658887">
        <ele>524.2</ele>
        <time>2020-01-02T17:43:46Z</time>
      </trkpt>
      <trkpt lat="61.260949020073" lon="12.257815617948">
        <ele>523.6</ele>
        <time>2020-01-02T17:43:49Z</time>
      </trkpt>
      <trkpt lat="61.260886826375" lon="12.258051987528">
        <ele>523.4</ele>
        <time>2020-01-02T17:43:51Z</time>
      </trkpt>
      <trkpt lat="61.260812730379" lon="12.258443673715">
        <ele>522.4</ele>
        <time>2020-01-02T17:43:54Z</time>
      </trkpt>
      <trkpt lat="61.260767635757" lon="12.258867630217">
        <ele>521.4</ele>
        <time>2020-01-02T17:43:57Z</time>
      </trkpt>
      <trkpt lat="61.260767300481" lon="12.259154710292">
        <ele>520.4</ele>
        <time>2020-01-02T17:43:59Z</time>
      </trkpt>
      <trkpt lat="61.260765959377" lon="12.259340369377">
        <ele>520</ele>
        <time>2020-01-02T17:44:00Z</time>
      </trkpt>
      <trkpt lat="61.260793703466" lon="12.259651673143">
        <ele>519</ele>
        <time>2020-01-02T17:44:02Z</time>
      </trkpt>
      <trkpt lat="61.260823794487" lon="12.259977561415">
        <ele>517.6</ele>
        <time>2020-01-02T17:44:04Z</time>
      </trkpt>
      <trkpt lat="61.260862770322" lon="12.260299342556">
        <ele>516.6</ele>
        <time>2020-01-02T17:44:06Z</time>
      </trkpt>
      <trkpt lat="61.260912894084" lon="12.260860175485">
        <ele>515.2</ele>
        <time>2020-01-02T17:44:09Z</time>
      </trkpt>
      <trkpt lat="61.260956060869" lon="12.261262758142">
        <ele>513.6</ele>
        <time>2020-01-02T17:44:11Z</time>
      </trkpt>
      <trkpt lat="61.261007022821" lon="12.261671040491">
        <ele>511.6</ele>
        <time>2020-01-02T17:44:13Z</time>
      </trkpt>
      <trkpt lat="61.261034347815" lon="12.261878911611">
        <ele>510.6</ele>
        <time>2020-01-02T17:44:14Z</time>
      </trkpt>
      <trkpt lat="61.26109511659" lon="12.262289121797">
        <ele>508.8</ele>
        <time>2020-01-02T17:44:16Z</time>
      </trkpt>
      <trkpt lat="61.261154041347" lon="12.262705199313">
        <ele>507</ele>
        <time>2020-01-02T17:44:18Z</time>
      </trkpt>
      <trkpt lat="61.261195950847" lon="12.263125803055">
        <ele>505.4</ele>
        <time>2020-01-02T17:44:20Z</time>
      </trkpt>
      <trkpt lat="61.261204248928" lon="12.263338619496">
        <ele>504.8</ele>
        <time>2020-01-02T17:44:21Z</time>
      </trkpt>
      <trkpt lat="61.261201734358" lon="12.263551687394">
        <ele>503.8</ele>
        <time>2020-01-02T17:44:22Z</time>
      </trkpt>
      <trkpt lat="61.26118731749" lon="12.263767018405">
        <ele>503</ele>
        <time>2020-01-02T17:44:23Z</time>
      </trkpt>
      <trkpt lat="61.261173487355" lon="12.264000538139">
        <ele>502</ele>
        <time>2020-01-02T17:44:24Z</time>
      </trkpt>
      <trkpt lat="61.261157897021" lon="12.26422760381">
        <ele>501.6</ele>
        <time>2020-01-02T17:44:25Z</time>
      </trkpt>
      <trkpt lat="61.261149096026" lon="12.264488616176">
        <ele>501.4</ele>
        <time>2020-01-02T17:44:26Z</time>
      </trkpt>
      <trkpt lat="61.261204332747" lon="12.264989267063">
        <ele>502</ele>
        <time>2020-01-02T17:44:28Z</time>
      </trkpt>
      <trkpt lat="61.261243811496" lon="12.265214488716">
        <ele>503.2</ele>
        <time>2020-01-02T17:44:29Z</time>
      </trkpt>
      <trkpt lat="61.261302484796" lon="12.265408864977">
        <ele>503.6</ele>
        <time>2020-01-02T17:44:30Z</time>
      </trkpt>
      <trkpt lat="61.261449000408" lon="12.265735088525">
        <ele>504</ele>
        <time>2020-01-02T17:44:32Z</time>
      </trkpt>
      <trkpt lat="61.261637090244" lon="12.265935918849">
        <ele>502.6</ele>
        <time>2020-01-02T17:44:34Z</time>
      </trkpt>
      <trkpt lat="61.261733398275" lon="12.265978079806">
        <ele>501.8</ele>
        <time>2020-01-02T17:44:35Z</time>
      </trkpt>
      <trkpt lat="61.261827778469" lon="12.265987383715">
        <ele>500.8</ele>
        <time>2020-01-02T17:44:36Z</time>
      </trkpt>
      <trkpt lat="61.261918386808" lon="12.26596684806">
        <ele>499.4</ele>
        <time>2020-01-02T17:44:37Z</time>
      </trkpt>
      <trkpt lat="61.262004720378" lon="12.265930135338">
        <ele>497.6</ele>
        <time>2020-01-02T17:44:38Z</time>
      </trkpt>
      <trkpt lat="61.262085354256" lon="12.265879341024">
        <ele>495.8</ele>
        <time>2020-01-02T17:44:39Z</time>
      </trkpt>
      <trkpt lat="61.262168335066" lon="12.26582687033">
        <ele>494.2</ele>
        <time>2020-01-02T17:44:40Z</time>
      </trkpt>
      <trkpt lat="61.262248298392" lon="12.26577154979">
        <ele>493</ele>
        <time>2020-01-02T17:44:41Z</time>
      </trkpt>
      <trkpt lat="61.262383749896" lon="12.265646072747">
        <ele>492</ele>
        <time>2020-01-02T17:44:43Z</time>
      </trkpt>
      <trkpt lat="61.262649456126" lon="12.265478518566">
        <ele>492</ele>
        <time>2020-01-02T17:44:47Z</time>
      </trkpt>
      <trkpt lat="61.262959754064" lon="12.265481452231">
        <ele>491</ele>
        <time>2020-01-02T17:44:51Z</time>
      </trkpt>
      <trkpt lat="61.263122027648" lon="12.265537946237">
        <ele>489.2</ele>
        <time>2020-01-02T17:44:53Z</time>
      </trkpt>
      <trkpt lat="61.263205176096" lon="12.265568372534">
        <ele>488.2</ele>
        <time>2020-01-02T17:44:54Z</time>
      </trkpt>
      <trkpt lat="61.263373652286" lon="12.265630901508">
        <ele>486.8</ele>
        <time>2020-01-02T17:44:56Z</time>
      </trkpt>
      <trkpt lat="61.263877404476" lon="12.265617658106">
        <ele>485.8</ele>
        <time>2020-01-02T17:45:02Z</time>
      </trkpt>
      <trkpt lat="61.26396005001" lon="12.265599553202">
        <ele>485.6</ele>
        <time>2020-01-02T17:45:03Z</time>
      </trkpt>
      <trkpt lat="61.264491043375" lon="12.265383886915">
        <ele>484.6</ele>
        <time>2020-01-02T17:45:09Z</time>
      </trkpt>
      <trkpt lat="61.26455767948" lon="12.265366284925">
        <ele>484.6</ele>
        <time>2020-01-02T17:45:10Z</time>
      </trkpt>
      <trkpt lat="61.264750714637" lon="12.265284980495">
        <ele>485.6</ele>
        <time>2020-01-02T17:45:13Z</time>
      </trkpt>
      <trkpt lat="61.264811399593" lon="12.265250279429">
        <ele>486.8</ele>
        <time>2020-01-02T17:45:14Z</time>
      </trkpt>
      <trkpt lat="61.264865630486" lon="12.265207196463">
        <ele>487.6</ele>
        <time>2020-01-02T17:45:15Z</time>
      </trkpt>
      <trkpt lat="61.264912988221" lon="12.265159084357">
        <ele>488.2</ele>
        <time>2020-01-02T17:45:16Z</time>
      </trkpt>
      <trkpt lat="61.265042069481" lon="12.264983567371">
        <ele>488.4</ele>
        <time>2020-01-02T17:45:19Z</time>
      </trkpt>
      <trkpt lat="61.265406598312" lon="12.264363222952">
        <ele>488</ele>
        <time>2020-01-02T17:45:27Z</time>
      </trkpt>
      <trkpt lat="61.265447585803" lon="12.264276302649">
        <ele>488</ele>
        <time>2020-01-02T17:45:28Z</time>
      </trkpt>
      <trkpt lat="61.265564010394" lon="12.263993497343">
        <ele>487.8</ele>
        <time>2020-01-02T17:45:32Z</time>
      </trkpt>
      <trkpt lat="61.265819239249" lon="12.263409614189">
        <ele>489.4</ele>
        <time>2020-01-02T17:45:44Z</time>
      </trkpt>
      <trkpt lat="61.265954858391" lon="12.263188583486">
        <ele>490.6</ele>
        <time>2020-01-02T17:45:49Z</time>
      </trkpt>
      <trkpt lat="61.266090980447" lon="12.262997811442">
        <ele>490.8</ele>
        <time>2020-01-02T17:45:53Z</time>
      </trkpt>
      <trkpt lat="61.266180834415" lon="12.262892031864">
        <ele>490.4</ele>
        <time>2020-01-02T17:45:55Z</time>
      </trkpt>
      <trkpt lat="61.266311508236" lon="12.262765632812">
        <ele>489.8</ele>
        <time>2020-01-02T17:45:58Z</time>
      </trkpt>
      <trkpt lat="61.266366996414" lon="12.262732859583">
        <ele>489.4</ele>
        <time>2020-01-02T17:45:59Z</time>
      </trkpt>
      <trkpt lat="61.266486689946" lon="12.262670162971">
        <ele>487.2</ele>
        <time>2020-01-02T17:46:01Z</time>
      </trkpt>
      <trkpt lat="61.266557014087" lon="12.262622805236">
        <ele>485.8</ele>
        <time>2020-01-02T17:46:02Z</time>
      </trkpt>
      <trkpt lat="61.266629349884" lon="12.262587433618">
        <ele>484.6</ele>
        <time>2020-01-02T17:46:03Z</time>
      </trkpt>
      <trkpt lat="61.266711408685" lon="12.262551642905">
        <ele>483.2</ele>
        <time>2020-01-02T17:46:04Z</time>
      </trkpt>
      <trkpt lat="61.266801681748" lon="12.262509817224">
        <ele>482</ele>
        <time>2020-01-02T17:46:05Z</time>
      </trkpt>
      <trkpt lat="61.266889104965" lon="12.262459777281">
        <ele>480.6</ele>
        <time>2020-01-02T17:46:06Z</time>
      </trkpt>
      <trkpt lat="61.266976612001" lon="12.262415185573">
        <ele>479.4</ele>
        <time>2020-01-02T17:46:07Z</time>
      </trkpt>
      <trkpt lat="61.267119858672" lon="12.262403199456">
        <ele>478.2</ele>
        <time>2020-01-02T17:46:09Z</time>
      </trkpt>
      <trkpt lat="61.267597291696" lon="12.262423651292">
        <ele>478.8</ele>
        <time>2020-01-02T17:46:16Z</time>
      </trkpt>
      <trkpt lat="61.268027953718" lon="12.262579470813">
        <ele>479.6</ele>
        <time>2020-01-02T17:46:21Z</time>
      </trkpt>
      <trkpt lat="61.26815435277" lon="12.262634875172">
        <ele>481.2</ele>
        <time>2020-01-02T17:46:23Z</time>
      </trkpt>
      <trkpt lat="61.26836222389" lon="12.262664211822">
        <ele>482.2</ele>
        <time>2020-01-02T17:46:26Z</time>
      </trkpt>
      <trkpt lat="61.268694817682" lon="12.262704444942">
        <ele>480.6</ele>
        <time>2020-01-02T17:46:31Z</time>
      </trkpt>
      <trkpt lat="61.268760028864" lon="12.262712575385">
        <ele>479.4</ele>
        <time>2020-01-02T17:46:32Z</time>
      </trkpt>
      <trkpt lat="61.268827000245" lon="12.262720622009">
        <ele>478</ele>
        <time>2020-01-02T17:46:33Z</time>
      </trkpt>
      <trkpt lat="61.268952728745" lon="12.262724058588">
        <ele>476.2</ele>
        <time>2020-01-02T17:46:35Z</time>
      </trkpt>
      <trkpt lat="61.269153139974" lon="12.262688267875">
        <ele>475</ele>
        <time>2020-01-02T17:46:38Z</time>
      </trkpt>
      <trkpt lat="61.269393532866" lon="12.262601934305">
        <ele>473.8</ele>
        <time>2020-01-02T17:46:42Z</time>
      </trkpt>
      <trkpt lat="61.269621520546" lon="12.262462459489">
        <ele>472.8</ele>
        <time>2020-01-02T17:46:46Z</time>
      </trkpt>
      <trkpt lat="61.269811286762" lon="12.262365732363">
        <ele>471.4</ele>
        <time>2020-01-02T17:46:49Z</time>
      </trkpt>
      <trkpt lat="61.270104653262" lon="12.26225701912">
        <ele>470.2</ele>
        <time>2020-01-02T17:46:52Z</time>
      </trkpt>
      <trkpt lat="61.270392739165" lon="12.262328013813">
        <ele>472</ele>
        <time>2020-01-02T17:46:56Z</time>
      </trkpt>
      <trkpt lat="61.270509163756" lon="12.262342263043">
        <ele>473.6</ele>
        <time>2020-01-02T17:46:58Z</time>
      </trkpt>
      <trkpt lat="61.270962708365" lon="12.262259282233">
        <ele>473.8</ele>
        <time>2020-01-02T17:47:06Z</time>
      </trkpt>
      <trkpt lat="61.27108717958" lon="12.262232879248">
        <ele>472.4</ele>
        <time>2020-01-02T17:47:08Z</time>
      </trkpt>
      <trkpt lat="61.271150546744" lon="12.262218546199">
        <ele>471.2</ele>
        <time>2020-01-02T17:47:09Z</time>
      </trkpt>
      <trkpt lat="61.271207962759" lon="12.262200441295">
        <ele>470.2</ele>
        <time>2020-01-02T17:47:10Z</time>
      </trkpt>
      <trkpt lat="61.271320615495" lon="12.262162136012">
        <ele>469</ele>
        <time>2020-01-02T17:47:12Z</time>
      </trkpt>
      <trkpt lat="61.271524295665" lon="12.262112766621">
        <ele>468.8</ele>
        <time>2020-01-02T17:47:15Z</time>
      </trkpt>
      <trkpt lat="61.271747924757" lon="12.262046801068">
        <ele>470.2</ele>
        <time>2020-01-02T17:47:19Z</time>
      </trkpt>
      <trkpt lat="61.271946743425" lon="12.261980081144">
        <ele>471.4</ele>
        <time>2020-01-02T17:47:23Z</time>
      </trkpt>
      <trkpt lat="61.272301046338" lon="12.261830296591">
        <ele>470.8</ele>
        <time>2020-01-02T17:47:30Z</time>
      </trkpt>
      <trkpt lat="61.272534901348" lon="12.261706998842">
        <ele>469.8</ele>
        <time>2020-01-02T17:47:34Z</time>
      </trkpt>
      <trkpt lat="61.272602878557" lon="12.261665508437">
        <ele>468.8</ele>
        <time>2020-01-02T17:47:35Z</time>
      </trkpt>
      <trkpt lat="61.27267219687" lon="12.261628125163">
        <ele>467.6</ele>
        <time>2020-01-02T17:47:36Z</time>
      </trkpt>
      <trkpt lat="61.272812509876" lon="12.261568697492">
        <ele>466</ele>
        <time>2020-01-02T17:47:38Z</time>
      </trkpt>
      <trkpt lat="61.272946620276" lon="12.261520585386">
        <ele>465</ele>
        <time>2020-01-02T17:47:40Z</time>
      </trkpt>
      <trkpt lat="61.2732061239" lon="12.26145235672">
        <ele>463.8</ele>
        <time>2020-01-02T17:47:44Z</time>
      </trkpt>
      <trkpt lat="61.273421874006" lon="12.261406843003">
        <ele>462.4</ele>
        <time>2020-01-02T17:47:47Z</time>
      </trkpt>
      <trkpt lat="61.27356822198" lon="12.26135931763">
        <ele>461.2</ele>
        <time>2020-01-02T17:47:49Z</time>
      </trkpt>
      <trkpt lat="61.273704176398" lon="12.261309193868">
        <ele>460</ele>
        <time>2020-01-02T17:47:51Z</time>
      </trkpt>
      <trkpt lat="61.273863348679" lon="12.26125705845">
        <ele>458.8</ele>
        <time>2020-01-02T17:47:54Z</time>
      </trkpt>
      <trkpt lat="61.274333657088" lon="12.261119679109">
        <ele>459.2</ele>
        <time>2020-01-02T17:48:01Z</time>
      </trkpt>
      <trkpt lat="61.274403310677" lon="12.261090426278">
        <ele>460</ele>
        <time>2020-01-02T17:48:02Z</time>
      </trkpt>
      <trkpt lat="61.274528117168" lon="12.261048265321">
        <ele>461</ele>
        <time>2020-01-02T17:48:04Z</time>
      </trkpt>
      <trkpt lat="61.274817041261" lon="12.260919100242">
        <ele>461.6</ele>
        <time>2020-01-02T17:48:09Z</time>
      </trkpt>
      <trkpt lat="61.275292965543" lon="12.260722628506">
        <ele>460.8</ele>
        <time>2020-01-02T17:48:17Z</time>
      </trkpt>
      <trkpt lat="61.275608460259" lon="12.26058483007">
        <ele>459.2</ele>
        <time>2020-01-02T17:48:22Z</time>
      </trkpt>
      <trkpt lat="61.275673419984" lon="12.260554487592">
        <ele>458</ele>
        <time>2020-01-02T17:48:23Z</time>
      </trkpt>
      <trkpt lat="61.275736787148" lon="12.260522887829">
        <ele>456.6</ele>
        <time>2020-01-02T17:48:24Z</time>
      </trkpt>
      <trkpt lat="61.275870813729" lon="12.260469495126">
        <ele>455.2</ele>
        <time>2020-01-02T17:48:26Z</time>
      </trkpt>
      <trkpt lat="61.276124450023" lon="12.260371007801">
        <ele>456.2</ele>
        <time>2020-01-02T17:48:30Z</time>
      </trkpt>
      <trkpt lat="61.276239198234" lon="12.260321219315">
        <ele>457.8</ele>
        <time>2020-01-02T17:48:32Z</time>
      </trkpt>
      <trkpt lat="61.276633231353" lon="12.260070516686">
        <ele>458.2</ele>
        <time>2020-01-02T17:48:40Z</time>
      </trkpt>
      <trkpt lat="61.276855016427" lon="12.259959456511">
        <ele>457.8</ele>
        <time>2020-01-02T17:48:45Z</time>
      </trkpt>
      <trkpt lat="61.277165901098" lon="12.259844121567">
        <ele>457.2</ele>
        <time>2020-01-02T17:48:52Z</time>
      </trkpt>
      <trkpt lat="61.277370587096" lon="12.25974496369">
        <ele>457</ele>
        <time>2020-01-02T17:48:57Z</time>
      </trkpt>
      <trkpt lat="61.277549792118" lon="12.259672124979">
        <ele>456.6</ele>
        <time>2020-01-02T17:49:01Z</time>
      </trkpt>
      <trkpt lat="61.277703767621" lon="12.259617391172">
        <ele>456.4</ele>
        <time>2020-01-02T17:49:04Z</time>
      </trkpt>
      <trkpt lat="61.277807870819" lon="12.259566513039">
        <ele>456.2</ele>
        <time>2020-01-02T17:49:06Z</time>
      </trkpt>
      <trkpt lat="61.277908453619" lon="12.259527537204">
        <ele>456</ele>
        <time>2020-01-02T17:49:08Z</time>
      </trkpt>
      <trkpt lat="61.278073325592" lon="12.259430223345">
        <ele>455.6</ele>
        <time>2020-01-02T17:49:11Z</time>
      </trkpt>
      <trkpt lat="61.278348168093" lon="12.259243642251">
        <ele>454.8</ele>
        <time>2020-01-02T17:49:16Z</time>
      </trkpt>
      <trkpt lat="61.278533072807" lon="12.259088409463">
        <ele>454.4</ele>
        <time>2020-01-02T17:49:20Z</time>
      </trkpt>
      <trkpt lat="61.278611024477" lon="12.259018504417">
        <ele>454.4</ele>
        <time>2020-01-02T17:49:22Z</time>
      </trkpt>
      <trkpt lat="61.279017630446" lon="12.258594464096">
        <ele>454.8</ele>
        <time>2020-01-02T17:49:34Z</time>
      </trkpt>
      <trkpt lat="61.27944561026" lon="12.258220798994">
        <ele>455.2</ele>
        <time>2020-01-02T17:49:47Z</time>
      </trkpt>
      <trkpt lat="61.279484250819" lon="12.258197329674">
        <ele>455</ele>
        <time>2020-01-02T17:49:48Z</time>
      </trkpt>
      <trkpt lat="61.279562202489" lon="12.258151815957">
        <ele>455</ele>
        <time>2020-01-02T17:49:50Z</time>
      </trkpt>
      <trkpt lat="61.279945925871" lon="12.257896587102">
        <ele>453.2</ele>
        <time>2020-01-02T17:49:58Z</time>
      </trkpt>
      <trkpt lat="61.280092441483" lon="12.257763566349">
        <ele>452.8</ele>
        <time>2020-01-02T17:50:01Z</time>
      </trkpt>
      <trkpt lat="61.280335935678" lon="12.257558042161">
        <ele>452.2</ele>
        <time>2020-01-02T17:50:06Z</time>
      </trkpt>
      <trkpt lat="61.280423610352" lon="12.257483275613">
        <ele>451.6</ele>
        <time>2020-01-02T17:50:08Z</time>
      </trkpt>
      <trkpt lat="61.280571215611" lon="12.257358804398">
        <ele>451.4</ele>
        <time>2020-01-02T17:50:12Z</time>
      </trkpt>
      <trkpt lat="61.280648077634" lon="12.257277248511">
        <ele>451.4</ele>
        <time>2020-01-02T17:50:14Z</time>
      </trkpt>
      <trkpt lat="61.280790318477" lon="12.257074406531">
        <ele>451.4</ele>
        <time>2020-01-02T17:50:18Z</time>
      </trkpt>
      <trkpt lat="61.280894505494" lon="12.25691020511">
        <ele>451.2</ele>
        <time>2020-01-02T17:50:21Z</time>
      </trkpt>
      <trkpt lat="61.28100883461" lon="12.256743992033">
        <ele>450.6</ele>
        <time>2020-01-02T17:50:24Z</time>
      </trkpt>
      <trkpt lat="61.281157948611" lon="12.256560763699">
        <ele>450</ele>
        <time>2020-01-02T17:50:28Z</time>
      </trkpt>
      <trkpt lat="61.281575702507" lon="12.256117025913">
        <ele>450.4</ele>
        <time>2020-01-02T17:50:40Z</time>
      </trkpt>
      <trkpt lat="61.281939728424" lon="12.255805135414">
        <ele>451.2</ele>
        <time>2020-01-02T17:50:50Z</time>
      </trkpt>
      <trkpt lat="61.282383633848" lon="12.255526856334">
        <ele>451</ele>
        <time>2020-01-02T17:51:01Z</time>
      </trkpt>
      <trkpt lat="61.282496957136" lon="12.255457035107">
        <ele>451</ele>
        <time>2020-01-02T17:51:03Z</time>
      </trkpt>
      <trkpt lat="61.28283105967" lon="12.255235417671">
        <ele>450.4</ele>
        <time>2020-01-02T17:51:09Z</time>
      </trkpt>
      <trkpt lat="61.282885039106" lon="12.255198956406">
        <ele>450.2</ele>
        <time>2020-01-02T17:51:10Z</time>
      </trkpt>
      <trkpt lat="61.283348641995" lon="12.25488346169">
        <ele>449.8</ele>
        <time>2020-01-02T17:51:19Z</time>
      </trkpt>
      <trkpt lat="61.283547544482" lon="12.25474767491">
        <ele>449.4</ele>
        <time>2020-01-02T17:51:23Z</time>
      </trkpt>
      <trkpt lat="61.283636141165" lon="12.254706771238">
        <ele>449</ele>
        <time>2020-01-02T17:51:25Z</time>
      </trkpt>
      <trkpt lat="61.284086752109" lon="12.254417176593">
        <ele>449.4</ele>
        <time>2020-01-02T17:51:38Z</time>
      </trkpt>
      <trkpt lat="61.284263442561" lon="12.25428331765">
        <ele>450</ele>
        <time>2020-01-02T17:51:44Z</time>
      </trkpt>
      <trkpt lat="61.284690416547" lon="12.253986766028">
        <ele>450.2</ele>
        <time>2020-01-02T17:51:55Z</time>
      </trkpt>
      <trkpt lat="61.284862664592" lon="12.253839160769">
        <ele>450.6</ele>
        <time>2020-01-02T17:51:59Z</time>
      </trkpt>
      <trkpt lat="61.285048658953" lon="12.253667583276">
        <ele>450.4</ele>
        <time>2020-01-02T17:52:03Z</time>
      </trkpt>
      <trkpt lat="61.285131975039" lon="12.253605389578">
        <ele>450.2</ele>
        <time>2020-01-02T17:52:05Z</time>
      </trkpt>
      <trkpt lat="61.285222667197" lon="12.253552164513">
        <ele>450.2</ele>
        <time>2020-01-02T17:52:07Z</time>
      </trkpt>
      <trkpt lat="61.285350910267" lon="12.253449067143">
        <ele>450.4</ele>
        <time>2020-01-02T17:52:10Z</time>
      </trkpt>
      <trkpt lat="61.285520308466" lon="12.253301629522">
        <ele>450.6</ele>
        <time>2020-01-02T17:52:14Z</time>
      </trkpt>
      <trkpt lat="61.285591973711" lon="12.253225354232">
        <ele>450.4</ele>
        <time>2020-01-02T17:52:16Z</time>
      </trkpt>
      <trkpt lat="61.286063707043" lon="12.252938106519">
        <ele>450.4</ele>
        <time>2020-01-02T17:52:28Z</time>
      </trkpt>
      <trkpt lat="61.286529656864" lon="12.252807600336">
        <ele>450.2</ele>
        <time>2020-01-02T17:52:37Z</time>
      </trkpt>
      <trkpt lat="61.286775833267" lon="12.252670304814">
        <ele>449.4</ele>
        <time>2020-01-02T17:52:42Z</time>
      </trkpt>
      <trkpt lat="61.286924192897" lon="12.25253485331">
        <ele>449</ele>
        <time>2020-01-02T17:52:46Z</time>
      </trkpt>
      <trkpt lat="61.287349825779" lon="12.252082649805">
        <ele>449.6</ele>
        <time>2020-01-02T17:52:57Z</time>
      </trkpt>
      <trkpt lat="61.287381425542" lon="12.252044679798">
        <ele>449.6</ele>
        <time>2020-01-02T17:52:58Z</time>
      </trkpt>
      <trkpt lat="61.287503214549" lon="12.2518651395">
        <ele>450</ele>
        <time>2020-01-02T17:53:02Z</time>
      </trkpt>
      <trkpt lat="61.287570102111" lon="12.251763634691">
        <ele>450.4</ele>
        <time>2020-01-02T17:53:04Z</time>
      </trkpt>
      <trkpt lat="61.287620561149" lon="12.251691382713">
        <ele>450.6</ele>
        <time>2020-01-02T17:53:06Z</time>
      </trkpt>
      <trkpt lat="61.287848213553" lon="12.251313442842">
        <ele>451</ele>
        <time>2020-01-02T17:53:16Z</time>
      </trkpt>
      <trkpt lat="61.287882411705" lon="12.251272371532">
        <ele>451.2</ele>
        <time>2020-01-02T17:53:17Z</time>
      </trkpt>
      <trkpt lat="61.288182399906" lon="12.250769122256">
        <ele>452.2</ele>
        <time>2020-01-02T17:53:28Z</time>
      </trkpt>
      <trkpt lat="61.288483142478" lon="12.250343405555">
        <ele>453.4</ele>
        <time>2020-01-02T17:53:39Z</time>
      </trkpt>
      <trkpt lat="61.288807438189" lon="12.249977870896">
        <ele>453.4</ele>
        <time>2020-01-02T17:53:48Z</time>
      </trkpt>
      <trkpt lat="61.289156209048" lon="12.249694311219">
        <ele>454.4</ele>
        <time>2020-01-02T17:53:59Z</time>
      </trkpt>
      <trkpt lat="61.289599192463" lon="12.249337577555">
        <ele>455.2</ele>
        <time>2020-01-02T17:54:11Z</time>
      </trkpt>
      <trkpt lat="61.289913178437" lon="12.249085198546">
        <ele>455.2</ele>
        <time>2020-01-02T17:54:19Z</time>
      </trkpt>
      <trkpt lat="61.29036052044" lon="12.248719328611">
        <ele>455</ele>
        <time>2020-01-02T17:54:30Z</time>
      </trkpt>
      <trkpt lat="61.290788751711" lon="12.248373910512">
        <ele>454.4</ele>
        <time>2020-01-02T17:54:41Z</time>
      </trkpt>
      <trkpt lat="61.291225448701" lon="12.248043412195">
        <ele>454.8</ele>
        <time>2020-01-02T17:54:52Z</time>
      </trkpt>
      <trkpt lat="61.29126576564" lon="12.248007286206">
        <ele>454.6</ele>
        <time>2020-01-02T17:54:53Z</time>
      </trkpt>
      <trkpt lat="61.291649321384" lon="12.247809808642">
        <ele>455</ele>
        <time>2020-01-02T17:55:02Z</time>
      </trkpt>
      <trkpt lat="61.291852666278" lon="12.247803186941">
        <ele>454.2</ele>
        <time>2020-01-02T17:55:06Z</time>
      </trkpt>
      <trkpt lat="61.292310318018" lon="12.2478418275">
        <ele>453.8</ele>
        <time>2020-01-02T17:55:14Z</time>
      </trkpt>
      <trkpt lat="61.292358430124" lon="12.247839732025">
        <ele>453.4</ele>
        <time>2020-01-02T17:55:15Z</time>
      </trkpt>
      <trkpt lat="61.29254987272" lon="12.247815340696">
        <ele>453</ele>
        <time>2020-01-02T17:55:19Z</time>
      </trkpt>
      <trkpt lat="61.292846927256" lon="12.247730515868">
        <ele>452.8</ele>
        <time>2020-01-02T17:55:26Z</time>
      </trkpt>
      <trkpt lat="61.293298879304" lon="12.247555501796">
        <ele>452.4</ele>
        <time>2020-01-02T17:55:35Z</time>
      </trkpt>
      <trkpt lat="61.293618900246" lon="12.247438490472">
        <ele>451.2</ele>
        <time>2020-01-02T17:55:41Z</time>
      </trkpt>
      <trkpt lat="61.293722249073" lon="12.247411584573">
        <ele>450</ele>
        <time>2020-01-02T17:55:43Z</time>
      </trkpt>
      <trkpt lat="61.293823334787" lon="12.247368166331">
        <ele>448.6</ele>
        <time>2020-01-02T17:55:45Z</time>
      </trkpt>
      <trkpt lat="61.293938082998" lon="12.24731041504">
        <ele>447.4</ele>
        <time>2020-01-02T17:55:47Z</time>
      </trkpt>
      <trkpt lat="61.29412064078" lon="12.247240426175">
        <ele>446</ele>
        <time>2020-01-02T17:55:50Z</time>
      </trkpt>
      <trkpt lat="61.294250895506" lon="12.2471880393">
        <ele>445</ele>
        <time>2020-01-02T17:55:52Z</time>
      </trkpt>
      <trkpt lat="61.294375701997" lon="12.247155098433">
        <ele>443.8</ele>
        <time>2020-01-02T17:55:54Z</time>
      </trkpt>
      <trkpt lat="61.294486762172" lon="12.24710589668">
        <ele>443.2</ele>
        <time>2020-01-02T17:55:56Z</time>
      </trkpt>
      <trkpt lat="61.294870066459" lon="12.246975055221">
        <ele>445.2</ele>
        <time>2020-01-02T17:56:02Z</time>
      </trkpt>
      <trkpt lat="61.295131330282" lon="12.246868521272">
        <ele>446.2</ele>
        <time>2020-01-02T17:56:07Z</time>
      </trkpt>
      <trkpt lat="61.295614462998" lon="12.246708929896">
        <ele>446.4</ele>
        <time>2020-01-02T17:56:18Z</time>
      </trkpt>
      <trkpt lat="61.29565955762" lon="12.246704990403">
        <ele>446.4</ele>
        <time>2020-01-02T17:56:19Z</time>
      </trkpt>
      <trkpt lat="61.295941021822" lon="12.246632989882">
        <ele>446</ele>
        <time>2020-01-02T17:56:24Z</time>
      </trkpt>
      <trkpt lat="61.296166746389" lon="12.246574819496">
        <ele>445.2</ele>
        <time>2020-01-02T17:56:28Z</time>
      </trkpt>
      <trkpt lat="61.296431111515" lon="12.246504830631">
        <ele>445</ele>
        <time>2020-01-02T17:56:33Z</time>
      </trkpt>
      <trkpt lat="61.296595229117" lon="12.246473566144">
        <ele>444.2</ele>
        <time>2020-01-02T17:56:36Z</time>
      </trkpt>
      <trkpt lat="61.296967888391" lon="12.246387735488">
        <ele>443</ele>
        <time>2020-01-02T17:56:43Z</time>
      </trkpt>
      <trkpt lat="61.297417409688" lon="12.246318333356">
        <ele>441.8</ele>
        <time>2020-01-02T17:56:51Z</time>
      </trkpt>
      <trkpt lat="61.29752704494" lon="12.246291427457">
        <ele>440.8</ele>
        <time>2020-01-02T17:56:53Z</time>
      </trkpt>
      <trkpt lat="61.297579431815" lon="12.24626770668">
        <ele>439.8</ele>
        <time>2020-01-02T17:56:54Z</time>
      </trkpt>
      <trkpt lat="61.297694431483" lon="12.246213978701">
        <ele>438.6</ele>
        <time>2020-01-02T17:56:56Z</time>
      </trkpt>
      <trkpt lat="61.297969525441" lon="12.246081879957">
        <ele>440</ele>
        <time>2020-01-02T17:57:01Z</time>
      </trkpt>
      <trkpt lat="61.298300023758" lon="12.245939052381">
        <ele>440.8</ele>
        <time>2020-01-02T17:57:09Z</time>
      </trkpt>
      <trkpt lat="61.298383423663" lon="12.245900244184">
        <ele>441</ele>
        <time>2020-01-02T17:57:11Z</time>
      </trkpt>
      <trkpt lat="61.298836130082" lon="12.245723302275">
        <ele>440.8</ele>
        <time>2020-01-02T17:57:21Z</time>
      </trkpt>
      <trkpt lat="61.299055652043" lon="12.245620791638">
        <ele>440</ele>
        <time>2020-01-02T17:57:26Z</time>
      </trkpt>
      <trkpt lat="61.299534174714" lon="12.245499002631">
        <ele>440.4</ele>
        <time>2020-01-02T17:57:38Z</time>
      </trkpt>
      <trkpt lat="61.299577090042" lon="12.245486345962">
        <ele>440.4</ele>
        <time>2020-01-02T17:57:39Z</time>
      </trkpt>
      <trkpt lat="61.299705333112" lon="12.245421889151">
        <ele>440.2</ele>
        <time>2020-01-02T17:57:42Z</time>
      </trkpt>
      <trkpt lat="61.299779177651" lon="12.24534150673">
        <ele>439.8</ele>
        <time>2020-01-02T17:57:44Z</time>
      </trkpt>
      <trkpt lat="61.299899793192" lon="12.245048810782">
        <ele>438.8</ele>
        <time>2020-01-02T17:57:48Z</time>
      </trkpt>
      <trkpt lat="61.299934242801" lon="12.244977899908">
        <ele>438.4</ele>
        <time>2020-01-02T17:57:49Z</time>
      </trkpt>
      <trkpt lat="61.300008003521" lon="12.244861559136">
        <ele>437.8</ele>
        <time>2020-01-02T17:57:51Z</time>
      </trkpt>
      <trkpt lat="61.300043961872" lon="12.244814536677">
        <ele>437.6</ele>
        <time>2020-01-02T17:57:52Z</time>
      </trkpt>
      <trkpt lat="61.300273542113" lon="12.244566264799">
        <ele>437.4</ele>
        <time>2020-01-02T17:58:11Z</time>
      </trkpt>
      <trkpt lat="61.30035677438" lon="12.24447398008">
        <ele>437.2</ele>
        <time>2020-01-02T17:58:28Z</time>
      </trkpt>
      <trkpt lat="61.300775450285" lon="12.244129819266">
        <ele>437.8</ele>
        <time>2020-01-02T17:58:40Z</time>
      </trkpt>
      <trkpt lat="61.301048197311" lon="12.244121437366">
        <ele>437.6</ele>
        <time>2020-01-02T17:58:45Z</time>
      </trkpt>
      <trkpt lat="61.301246261608" lon="12.244056058546">
        <ele>438</ele>
        <time>2020-01-02T17:58:49Z</time>
      </trkpt>
      <trkpt lat="61.301317591577" lon="12.243968467691">
        <ele>437.6</ele>
        <time>2020-01-02T17:58:51Z</time>
      </trkpt>
      <trkpt lat="61.301388753908" lon="12.243903591785">
        <ele>437</ele>
        <time>2020-01-02T17:58:53Z</time>
      </trkpt>
      <trkpt lat="61.301464526284" lon="12.243864113036">
        <ele>436.6</ele>
        <time>2020-01-02T17:58:55Z</time>
      </trkpt>
      <trkpt lat="61.301926201336" lon="12.243780294036">
        <ele>437.4</ele>
        <time>2020-01-02T17:59:05Z</time>
      </trkpt>
      <trkpt lat="61.302047319791" lon="12.243786161366">
        <ele>437.4</ele>
        <time>2020-01-02T17:59:07Z</time>
      </trkpt>
      <trkpt lat="61.302220489845" lon="12.243766631539">
        <ele>436.8</ele>
        <time>2020-01-02T17:59:10Z</time>
      </trkpt>
      <trkpt lat="61.302335489513" lon="12.243710891904">
        <ele>435</ele>
        <time>2020-01-02T17:59:12Z</time>
      </trkpt>
      <trkpt lat="61.302439508892" lon="12.243649871672">
        <ele>433.6</ele>
        <time>2020-01-02T17:59:14Z</time>
      </trkpt>
      <trkpt lat="61.302584599581" lon="12.243554653288">
        <ele>433.8</ele>
        <time>2020-01-02T17:59:17Z</time>
      </trkpt>
      <trkpt lat="61.302753494866" lon="12.24348659226">
        <ele>434.8</ele>
        <time>2020-01-02T17:59:20Z</time>
      </trkpt>
      <trkpt lat="61.303005370961" lon="12.243430768806">
        <ele>433.4</ele>
        <time>2020-01-02T17:59:25Z</time>
      </trkpt>
      <trkpt lat="61.303094135282" lon="12.243440407991">
        <ele>432.2</ele>
        <time>2020-01-02T17:59:27Z</time>
      </trkpt>
      <trkpt lat="61.303207290932" lon="12.243415932843">
        <ele>431.8</ele>
        <time>2020-01-02T17:59:29Z</time>
      </trkpt>
      <trkpt lat="61.303292870131" lon="12.243306716686">
        <ele>432.4</ele>
        <time>2020-01-02T17:59:31Z</time>
      </trkpt>
      <trkpt lat="61.303348442128" lon="12.243175204675">
        <ele>433.8</ele>
        <time>2020-01-02T17:59:33Z</time>
      </trkpt>
      <trkpt lat="61.303381969728" lon="12.242956101809">
        <ele>434.8</ele>
        <time>2020-01-02T17:59:36Z</time>
      </trkpt>
      <trkpt lat="61.303363445729" lon="12.242686288448">
        <ele>435.8</ele>
        <time>2020-01-02T17:59:40Z</time>
      </trkpt>
      <trkpt lat="61.303331091595" lon="12.242455283284">
        <ele>436.8</ele>
        <time>2020-01-02T17:59:45Z</time>
      </trkpt>
      <trkpt lat="61.303337797115" lon="12.24240867992">
        <ele>437</ele>
        <time>2020-01-02T17:59:46Z</time>
      </trkpt>
      <trkpt lat="61.303526976598" lon="12.242062591269">
        <ele>438</ele>
        <time>2020-01-02T17:59:56Z</time>
      </trkpt>
      <trkpt lat="61.303566036252" lon="12.242093771937">
        <ele>438</ele>
        <time>2020-01-02T17:59:58Z</time>
      </trkpt>
      <trkpt lat="61.303575004885" lon="12.242128640641">
        <ele>437.8</ele>
        <time>2020-01-02T17:59:59Z</time>
      </trkpt>
    </trkseg>
  </trk>
</gpx>